<?xml version="1.0" encoding="UTF-8"?><gpx version="1.1" xmlns:xsd="http://www.w3.org/2001/XMLSchema" xmlns:xsi="http://www.w3.org/2001/XMLSchema-instance" creator="NotARubicon.com. All Rights Reserved. https://www.notarubicon.com" xsi:schemaLocation="http://www.topografix.com/GPX/1/1 http://www.topografix.com/GPX/1/1/gpx.xsd http://www.magellangps.com/mgnext/0/2 http://www.magellangps.com/mgnext/0/2/mgn.xsd http://www.groundspeak.com/cache/1/0 http://www.groundspeak.com/cache/1/0/cache.xsd" xmlns="http://www.topografix.com/GPX/1/1">
<trk>
    <name>Black Eagle mine rd</name>
    <desc></desc>
    <extensions>
      <mgn:extensions xmlns:mgn="http://www.magellangps.com/mgnext/0/2">
        <mgn:difficulty>1</mgn:difficulty>
        <mgn:uuid>632fa9c9-eeb7-4057-89a2-4807ddb59965</mgn:uuid>
        <mgn:proplist>
          <mgn:prop key="Vehicle">9929</mgn:prop>
          <mgn:prop key="VehicleType">,OHV</mgn:prop>
          <mgn:prop key="WD">Some</mgn:prop>
          <mgn:prop key="LO">Some</mgn:prop>
          <mgn:prop key="DIRT">Loose;Rutted</mgn:prop>
          <mgn:prop key="T_MUD"></mgn:prop>
          <mgn:prop key="T_SAND">0-6N</mgn:prop>
          <mgn:prop key="T_SNOW"></mgn:prop>
          <mgn:prop key="T_ICE"></mgn:prop>
          <mgn:prop key="T_WATER"></mgn:prop>
          <mgn:prop key="T_ROCK">0-6N</mgn:prop>
          <mgn:prop key="PITCH">10-20</mgn:prop>
          <mgn:prop key="ROLL"></mgn:prop>
          <mgn:prop key="MAGELLAN_OFFROAD_KEY">0</mgn:prop>
          <mgn:prop key="Author">NotARubicon</mgn:prop>
          <mgn:prop key="InstagramUpdate">True</mgn:prop>
          <mgn:prop key="MaxElevation">753</mgn:prop>
          <mgn:prop key="MinElevation">574</mgn:prop>
          <mgn:prop key="ElevationChange">-33.19922</mgn:prop>
          <mgn:prop key="RecordedTime">5211</mgn:prop>
          <mgn:prop key="Length">19387.385</mgn:prop>
          <mgn:prop key="Type">Trail</mgn:prop>
          <mgn:prop key="Type2">Trail</mgn:prop>
        </mgn:proplist>
      </mgn:extensions>
    </extensions>

    <trkseg>
      <trkpt lat="33.828313" lon="-115.758438">
        <ele>753.699219</ele>
        <time>2020-06-20T20:31:51.000Z</time>
      </trkpt>
      <trkpt lat="33.828605" lon="-115.75789">
        <ele>751.597656</ele>
        <time>2020-06-20T20:32:19.000Z</time>
      </trkpt>
      <trkpt lat="33.828978" lon="-115.757319">
        <ele>750.597656</ele>
        <time>2020-06-20T20:32:27.000Z</time>
      </trkpt>
      <trkpt lat="33.829171" lon="-115.757018">
        <ele>750.199219</ele>
        <time>2020-06-20T20:32:31.000Z</time>
      </trkpt>
      <trkpt lat="33.829351" lon="-115.756726">
        <ele>748.398438</ele>
        <time>2020-06-20T20:32:35.000Z</time>
      </trkpt>
      <trkpt lat="33.829596" lon="-115.75638">
        <ele>747.097656</ele>
        <time>2020-06-20T20:32:40.000Z</time>
      </trkpt>
      <trkpt lat="33.829712" lon="-115.756142">
        <ele>747.000000</ele>
        <time>2020-06-20T20:32:43.000Z</time>
      </trkpt>
      <trkpt lat="33.830019" lon="-115.755492">
        <ele>745.796875</ele>
        <time>2020-06-20T20:32:51.000Z</time>
      </trkpt>
      <trkpt lat="33.830345" lon="-115.754846">
        <ele>745.597656</ele>
        <time>2020-06-20T20:32:59.000Z</time>
      </trkpt>
      <trkpt lat="33.830469" lon="-115.754604">
        <ele>745.296875</ele>
        <time>2020-06-20T20:33:02.000Z</time>
      </trkpt>
      <trkpt lat="33.830852" lon="-115.753973">
        <ele>744.097656</ele>
        <time>2020-06-20T20:33:10.000Z</time>
      </trkpt>
      <trkpt lat="33.831215" lon="-115.753339">
        <ele>743.097656</ele>
        <time>2020-06-20T20:33:18.000Z</time>
      </trkpt>
      <trkpt lat="33.831592" lon="-115.75274">
        <ele>741.296875</ele>
        <time>2020-06-20T20:33:26.000Z</time>
      </trkpt>
      <trkpt lat="33.83199" lon="-115.752156">
        <ele>739.296875</ele>
        <time>2020-06-20T20:33:34.000Z</time>
      </trkpt>
      <trkpt lat="33.832104" lon="-115.752012">
        <ele>738.097656</ele>
        <time>2020-06-20T20:33:36.000Z</time>
      </trkpt>
      <trkpt lat="33.832283" lon="-115.751812">
        <ele>736.898438</ele>
        <time>2020-06-20T20:33:39.000Z</time>
      </trkpt>
      <trkpt lat="33.832336" lon="-115.751733">
        <ele>736.500000</ele>
        <time>2020-06-20T20:33:40.000Z</time>
      </trkpt>
      <trkpt lat="33.832733" lon="-115.751144">
        <ele>734.296875</ele>
        <time>2020-06-20T20:33:47.000Z</time>
      </trkpt>
      <trkpt lat="33.83308" lon="-115.750546">
        <ele>732.796875</ele>
        <time>2020-06-20T20:33:53.000Z</time>
      </trkpt>
      <trkpt lat="33.833464" lon="-115.749966">
        <ele>731.597656</ele>
        <time>2020-06-20T20:33:59.000Z</time>
      </trkpt>
      <trkpt lat="33.833804" lon="-115.749361">
        <ele>730.500000</ele>
        <time>2020-06-20T20:34:05.000Z</time>
      </trkpt>
      <trkpt lat="33.833983" lon="-115.749073">
        <ele>729.500000</ele>
        <time>2020-06-20T20:34:08.000Z</time>
      </trkpt>
      <trkpt lat="33.834406" lon="-115.748502">
        <ele>727.597656</ele>
        <time>2020-06-20T20:34:14.000Z</time>
      </trkpt>
      <trkpt lat="33.834827" lon="-115.747891">
        <ele>725.796875</ele>
        <time>2020-06-20T20:34:20.000Z</time>
      </trkpt>
      <trkpt lat="33.835252" lon="-115.747311">
        <ele>724.500000</ele>
        <time>2020-06-20T20:34:26.000Z</time>
      </trkpt>
      <trkpt lat="33.83565" lon="-115.746722">
        <ele>724.000000</ele>
        <time>2020-06-20T20:34:32.000Z</time>
      </trkpt>
      <trkpt lat="33.836021" lon="-115.74617">
        <ele>723.796875</ele>
        <time>2020-06-20T20:34:38.000Z</time>
      </trkpt>
      <trkpt lat="33.83637" lon="-115.74565">
        <ele>722.398438</ele>
        <time>2020-06-20T20:34:44.000Z</time>
      </trkpt>
      <trkpt lat="33.83642" lon="-115.745559">
        <ele>722.097656</ele>
        <time>2020-06-20T20:34:45.000Z</time>
      </trkpt>
      <trkpt lat="33.836465" lon="-115.745466">
        <ele>722.000000</ele>
        <time>2020-06-20T20:34:46.000Z</time>
      </trkpt>
      <trkpt lat="33.836586" lon="-115.745165">
        <ele>720.796875</ele>
        <time>2020-06-20T20:34:49.000Z</time>
      </trkpt>
      <trkpt lat="33.836787" lon="-115.744642">
        <ele>718.500000</ele>
        <time>2020-06-20T20:34:54.000Z</time>
      </trkpt>
      <trkpt lat="33.83693" lon="-115.74433">
        <ele>717.597656</ele>
        <time>2020-06-20T20:34:57.000Z</time>
      </trkpt>
      <trkpt lat="33.837049" lon="-115.743998">
        <ele>716.199219</ele>
        <time>2020-06-20T20:35:00.000Z</time>
      </trkpt>
      <trkpt lat="33.83725" lon="-115.74331">
        <ele>713.398438</ele>
        <time>2020-06-20T20:35:06.000Z</time>
      </trkpt>
      <trkpt lat="33.837488" lon="-115.742621">
        <ele>711.000000</ele>
        <time>2020-06-20T20:35:12.000Z</time>
      </trkpt>
      <trkpt lat="33.837752" lon="-115.741936">
        <ele>709.199219</ele>
        <time>2020-06-20T20:35:18.000Z</time>
      </trkpt>
      <trkpt lat="33.838031" lon="-115.741249">
        <ele>707.199219</ele>
        <time>2020-06-20T20:35:24.000Z</time>
      </trkpt>
      <trkpt lat="33.838278" lon="-115.740519">
        <ele>704.500000</ele>
        <time>2020-06-20T20:35:30.000Z</time>
      </trkpt>
      <trkpt lat="33.838475" lon="-115.739887">
        <ele>701.597656</ele>
        <time>2020-06-20T20:35:35.000Z</time>
      </trkpt>
      <trkpt lat="33.838712" lon="-115.739251">
        <ele>699.796875</ele>
        <time>2020-06-20T20:35:40.000Z</time>
      </trkpt>
      <trkpt lat="33.838995" lon="-115.738643">
        <ele>698.097656</ele>
        <time>2020-06-20T20:35:45.000Z</time>
      </trkpt>
      <trkpt lat="33.839287" lon="-115.738028">
        <ele>696.597656</ele>
        <time>2020-06-20T20:35:50.000Z</time>
      </trkpt>
      <trkpt lat="33.839596" lon="-115.737422">
        <ele>695.699219</ele>
        <time>2020-06-20T20:35:55.000Z</time>
      </trkpt>
      <trkpt lat="33.839899" lon="-115.736814">
        <ele>694.199219</ele>
        <time>2020-06-20T20:36:00.000Z</time>
      </trkpt>
      <trkpt lat="33.840165" lon="-115.736194">
        <ele>692.199219</ele>
        <time>2020-06-20T20:36:05.000Z</time>
      </trkpt>
      <trkpt lat="33.840433" lon="-115.735571">
        <ele>690.199219</ele>
        <time>2020-06-20T20:36:10.000Z</time>
      </trkpt>
      <trkpt lat="33.840667" lon="-115.735087">
        <ele>689.000000</ele>
        <time>2020-06-20T20:36:14.000Z</time>
      </trkpt>
      <trkpt lat="33.840987" lon="-115.734506">
        <ele>686.898438</ele>
        <time>2020-06-20T20:36:19.000Z</time>
      </trkpt>
      <trkpt lat="33.841283" lon="-115.733914">
        <ele>685.398438</ele>
        <time>2020-06-20T20:36:24.000Z</time>
      </trkpt>
      <trkpt lat="33.841568" lon="-115.73329">
        <ele>683.500000</ele>
        <time>2020-06-20T20:36:29.000Z</time>
      </trkpt>
      <trkpt lat="33.841867" lon="-115.732662">
        <ele>682.000000</ele>
        <time>2020-06-20T20:36:34.000Z</time>
      </trkpt>
      <trkpt lat="33.842172" lon="-115.732035">
        <ele>680.597656</ele>
        <time>2020-06-20T20:36:39.000Z</time>
      </trkpt>
      <trkpt lat="33.842475" lon="-115.731404">
        <ele>678.898438</ele>
        <time>2020-06-20T20:36:44.000Z</time>
      </trkpt>
      <trkpt lat="33.842728" lon="-115.730753">
        <ele>677.097656</ele>
        <time>2020-06-20T20:36:49.000Z</time>
      </trkpt>
      <trkpt lat="33.842901" lon="-115.730377">
        <ele>676.000000</ele>
        <time>2020-06-20T20:36:52.000Z</time>
      </trkpt>
      <trkpt lat="33.843035" lon="-115.730141">
        <ele>675.199219</ele>
        <time>2020-06-20T20:36:54.000Z</time>
      </trkpt>
      <trkpt lat="33.843387" lon="-115.729575">
        <ele>673.500000</ele>
        <time>2020-06-20T20:36:59.000Z</time>
      </trkpt>
      <trkpt lat="33.843695" lon="-115.729008">
        <ele>672.398438</ele>
        <time>2020-06-20T20:37:04.000Z</time>
      </trkpt>
      <trkpt lat="33.844012" lon="-115.728442">
        <ele>671.097656</ele>
        <time>2020-06-20T20:37:09.000Z</time>
      </trkpt>
      <trkpt lat="33.844321" lon="-115.727862">
        <ele>669.898438</ele>
        <time>2020-06-20T20:37:14.000Z</time>
      </trkpt>
      <trkpt lat="33.844602" lon="-115.727262">
        <ele>668.296875</ele>
        <time>2020-06-20T20:37:19.000Z</time>
      </trkpt>
      <trkpt lat="33.844962" lon="-115.726578">
        <ele>666.796875</ele>
        <time>2020-06-20T20:37:25.000Z</time>
      </trkpt>
      <trkpt lat="33.845191" lon="-115.726133">
        <ele>665.796875</ele>
        <time>2020-06-20T20:37:29.000Z</time>
      </trkpt>
      <trkpt lat="33.845452" lon="-115.725535">
        <ele>664.000000</ele>
        <time>2020-06-20T20:37:34.000Z</time>
      </trkpt>
      <trkpt lat="33.84569" lon="-115.725046">
        <ele>663.000000</ele>
        <time>2020-06-20T20:37:38.000Z</time>
      </trkpt>
      <trkpt lat="33.84604" lon="-115.724445">
        <ele>661.898438</ele>
        <time>2020-06-20T20:37:43.000Z</time>
      </trkpt>
      <trkpt lat="33.84639" lon="-115.723804">
        <ele>661.000000</ele>
        <time>2020-06-20T20:37:48.000Z</time>
      </trkpt>
      <trkpt lat="33.846754" lon="-115.723163">
        <ele>659.597656</ele>
        <time>2020-06-20T20:37:53.000Z</time>
      </trkpt>
      <trkpt lat="33.847094" lon="-115.722525">
        <ele>657.597656</ele>
        <time>2020-06-20T20:37:58.000Z</time>
      </trkpt>
      <trkpt lat="33.847421" lon="-115.721915">
        <ele>656.398438</ele>
        <time>2020-06-20T20:38:03.000Z</time>
      </trkpt>
      <trkpt lat="33.847734" lon="-115.721315">
        <ele>655.000000</ele>
        <time>2020-06-20T20:38:08.000Z</time>
      </trkpt>
      <trkpt lat="33.848072" lon="-115.720731">
        <ele>654.199219</ele>
        <time>2020-06-20T20:38:13.000Z</time>
      </trkpt>
      <trkpt lat="33.848409" lon="-115.72015">
        <ele>652.597656</ele>
        <time>2020-06-20T20:38:18.000Z</time>
      </trkpt>
      <trkpt lat="33.848723" lon="-115.71958">
        <ele>651.296875</ele>
        <time>2020-06-20T20:38:23.000Z</time>
      </trkpt>
      <trkpt lat="33.849072" lon="-115.718892">
        <ele>649.296875</ele>
        <time>2020-06-20T20:38:29.000Z</time>
      </trkpt>
      <trkpt lat="33.849375" lon="-115.718299">
        <ele>648.097656</ele>
        <time>2020-06-20T20:38:34.000Z</time>
      </trkpt>
      <trkpt lat="33.849544" lon="-115.717934">
        <ele>646.796875</ele>
        <time>2020-06-20T20:38:37.000Z</time>
      </trkpt>
      <trkpt lat="33.849764" lon="-115.71745">
        <ele>646.097656</ele>
        <time>2020-06-20T20:38:41.000Z</time>
      </trkpt>
      <trkpt lat="33.850056" lon="-115.716839">
        <ele>645.398438</ele>
        <time>2020-06-20T20:38:46.000Z</time>
      </trkpt>
      <trkpt lat="33.850366" lon="-115.716221">
        <ele>644.699219</ele>
        <time>2020-06-20T20:38:51.000Z</time>
      </trkpt>
      <trkpt lat="33.850694" lon="-115.715594">
        <ele>643.796875</ele>
        <time>2020-06-20T20:38:56.000Z</time>
      </trkpt>
      <trkpt lat="33.851" lon="-115.71496">
        <ele>642.500000</ele>
        <time>2020-06-20T20:39:01.000Z</time>
      </trkpt>
      <trkpt lat="33.851303" lon="-115.714338">
        <ele>641.500000</ele>
        <time>2020-06-20T20:39:06.000Z</time>
      </trkpt>
      <trkpt lat="33.851598" lon="-115.713723">
        <ele>640.597656</ele>
        <time>2020-06-20T20:39:11.000Z</time>
      </trkpt>
      <trkpt lat="33.85167" lon="-115.713613">
        <ele>640.398438</ele>
        <time>2020-06-20T20:39:12.000Z</time>
      </trkpt>
      <trkpt lat="33.851814" lon="-115.713415">
        <ele>639.500000</ele>
        <time>2020-06-20T20:39:14.000Z</time>
      </trkpt>
      <trkpt lat="33.852213" lon="-115.712907">
        <ele>638.699219</ele>
        <time>2020-06-20T20:39:20.000Z</time>
      </trkpt>
      <trkpt lat="33.852348" lon="-115.712724">
        <ele>638.199219</ele>
        <time>2020-06-20T20:39:22.000Z</time>
      </trkpt>
      <trkpt lat="33.852499" lon="-115.712548">
        <ele>637.699219</ele>
        <time>2020-06-20T20:39:24.000Z</time>
      </trkpt>
      <trkpt lat="33.852992" lon="-115.712011">
        <ele>636.097656</ele>
        <time>2020-06-20T20:39:30.000Z</time>
      </trkpt>
      <trkpt lat="33.853336" lon="-115.711644">
        <ele>635.597656</ele>
        <time>2020-06-20T20:39:34.000Z</time>
      </trkpt>
      <trkpt lat="33.853483" lon="-115.711444">
        <ele>635.597656</ele>
        <time>2020-06-20T20:39:36.000Z</time>
      </trkpt>
      <trkpt lat="33.853872" lon="-115.710875">
        <ele>635.296875</ele>
        <time>2020-06-20T20:39:44.000Z</time>
      </trkpt>
      <trkpt lat="33.853918" lon="-115.710798">
        <ele>635.199219</ele>
        <time>2020-06-20T20:39:45.000Z</time>
      </trkpt>
      <trkpt lat="33.854053" lon="-115.710549">
        <ele>635.097656</ele>
        <time>2020-06-20T20:39:48.000Z</time>
      </trkpt>
      <trkpt lat="33.854184" lon="-115.710277">
        <ele>634.898438</ele>
        <time>2020-06-20T20:39:51.000Z</time>
      </trkpt>
      <trkpt lat="33.854222" lon="-115.710176">
        <ele>634.699219</ele>
        <time>2020-06-20T20:39:52.000Z</time>
      </trkpt>
      <trkpt lat="33.854286" lon="-115.709968">
        <ele>634.597656</ele>
        <time>2020-06-20T20:39:54.000Z</time>
      </trkpt>
      <trkpt lat="33.854367" lon="-115.709664">
        <ele>634.500000</ele>
        <time>2020-06-20T20:39:57.000Z</time>
      </trkpt>
      <trkpt lat="33.854403" lon="-115.709572">
        <ele>634.500000</ele>
        <time>2020-06-20T20:39:58.000Z</time>
      </trkpt>
      <trkpt lat="33.854449" lon="-115.709483">
        <ele>634.500000</ele>
        <time>2020-06-20T20:39:59.000Z</time>
      </trkpt>
      <trkpt lat="33.854785" lon="-115.708902">
        <ele>634.597656</ele>
        <time>2020-06-20T20:40:05.000Z</time>
      </trkpt>
      <trkpt lat="33.855191" lon="-115.708322">
        <ele>633.000000</ele>
        <time>2020-06-20T20:40:11.000Z</time>
      </trkpt>
      <trkpt lat="33.855382" lon="-115.708022">
        <ele>632.898438</ele>
        <time>2020-06-20T20:40:14.000Z</time>
      </trkpt>
      <trkpt lat="33.855716" lon="-115.707393">
        <ele>632.398438</ele>
        <time>2020-06-20T20:40:20.000Z</time>
      </trkpt>
      <trkpt lat="33.855911" lon="-115.70696">
        <ele>631.199219</ele>
        <time>2020-06-20T20:40:24.000Z</time>
      </trkpt>
      <trkpt lat="33.856148" lon="-115.706294">
        <ele>629.898438</ele>
        <time>2020-06-20T20:40:30.000Z</time>
      </trkpt>
      <trkpt lat="33.856192" lon="-115.706188">
        <ele>629.796875</ele>
        <time>2020-06-20T20:40:31.000Z</time>
      </trkpt>
      <trkpt lat="33.856241" lon="-115.706084">
        <ele>629.500000</ele>
        <time>2020-06-20T20:40:32.000Z</time>
      </trkpt>
      <trkpt lat="33.856295" lon="-115.705983">
        <ele>629.398438</ele>
        <time>2020-06-20T20:40:33.000Z</time>
      </trkpt>
      <trkpt lat="33.856354" lon="-115.705887">
        <ele>629.296875</ele>
        <time>2020-06-20T20:40:34.000Z</time>
      </trkpt>
      <trkpt lat="33.856591" lon="-115.705497">
        <ele>628.597656</ele>
        <time>2020-06-20T20:40:38.000Z</time>
      </trkpt>
      <trkpt lat="33.856842" lon="-115.704958">
        <ele>627.898438</ele>
        <time>2020-06-20T20:40:43.000Z</time>
      </trkpt>
      <trkpt lat="33.857143" lon="-115.704306">
        <ele>626.898438</ele>
        <time>2020-06-20T20:40:49.000Z</time>
      </trkpt>
      <trkpt lat="33.857487" lon="-115.703656">
        <ele>626.699219</ele>
        <time>2020-06-20T20:40:55.000Z</time>
      </trkpt>
      <trkpt lat="33.85769" lon="-115.703224">
        <ele>625.398438</ele>
        <time>2020-06-20T20:40:59.000Z</time>
      </trkpt>
      <trkpt lat="33.857965" lon="-115.70254">
        <ele>623.597656</ele>
        <time>2020-06-20T20:41:05.000Z</time>
      </trkpt>
      <trkpt lat="33.858259" lon="-115.701843">
        <ele>622.296875</ele>
        <time>2020-06-20T20:41:11.000Z</time>
      </trkpt>
      <trkpt lat="33.85855" lon="-115.701154">
        <ele>620.796875</ele>
        <time>2020-06-20T20:41:17.000Z</time>
      </trkpt>
      <trkpt lat="33.858847" lon="-115.70044">
        <ele>620.199219</ele>
        <time>2020-06-20T20:41:24.000Z</time>
      </trkpt>
      <trkpt lat="33.859045" lon="-115.700031">
        <ele>619.796875</ele>
        <time>2020-06-20T20:41:28.000Z</time>
      </trkpt>
      <trkpt lat="33.859264" lon="-115.699651">
        <ele>620.296875</ele>
        <time>2020-06-20T20:41:32.000Z</time>
      </trkpt>
      <trkpt lat="33.859624" lon="-115.699102">
        <ele>620.097656</ele>
        <time>2020-06-20T20:41:38.000Z</time>
      </trkpt>
      <trkpt lat="33.859844" lon="-115.698722">
        <ele>620.097656</ele>
        <time>2020-06-20T20:41:42.000Z</time>
      </trkpt>
      <trkpt lat="33.859944" lon="-115.698519">
        <ele>619.796875</ele>
        <time>2020-06-20T20:41:44.000Z</time>
      </trkpt>
      <trkpt lat="33.859988" lon="-115.698411">
        <ele>619.699219</ele>
        <time>2020-06-20T20:41:45.000Z</time>
      </trkpt>
      <trkpt lat="33.860166" lon="-115.697865">
        <ele>618.796875</ele>
        <time>2020-06-20T20:41:50.000Z</time>
      </trkpt>
      <trkpt lat="33.860364" lon="-115.697227">
        <ele>618.097656</ele>
        <time>2020-06-20T20:41:56.000Z</time>
      </trkpt>
      <trkpt lat="33.860413" lon="-115.697125">
        <ele>618.097656</ele>
        <time>2020-06-20T20:41:57.000Z</time>
      </trkpt>
      <trkpt lat="33.860468" lon="-115.697027">
        <ele>617.796875</ele>
        <time>2020-06-20T20:41:58.000Z</time>
      </trkpt>
      <trkpt lat="33.86053" lon="-115.696932">
        <ele>617.898438</ele>
        <time>2020-06-20T20:41:59.000Z</time>
      </trkpt>
      <trkpt lat="33.860772" lon="-115.696565">
        <ele>618.199219</ele>
        <time>2020-06-20T20:42:03.000Z</time>
      </trkpt>
      <trkpt lat="33.860821" lon="-115.696466">
        <ele>618.000000</ele>
        <time>2020-06-20T20:42:04.000Z</time>
      </trkpt>
      <trkpt lat="33.860905" lon="-115.696255">
        <ele>618.398438</ele>
        <time>2020-06-20T20:42:06.000Z</time>
      </trkpt>
      <trkpt lat="33.861145" lon="-115.695622">
        <ele>618.000000</ele>
        <time>2020-06-20T20:42:12.000Z</time>
      </trkpt>
      <trkpt lat="33.861436" lon="-115.694996">
        <ele>617.597656</ele>
        <time>2020-06-20T20:42:18.000Z</time>
      </trkpt>
      <trkpt lat="33.86157" lon="-115.694688">
        <ele>617.296875</ele>
        <time>2020-06-20T20:42:21.000Z</time>
      </trkpt>
      <trkpt lat="33.861792" lon="-115.694043">
        <ele>616.398438</ele>
        <time>2020-06-20T20:42:27.000Z</time>
      </trkpt>
      <trkpt lat="33.861883" lon="-115.693828">
        <ele>616.296875</ele>
        <time>2020-06-20T20:42:29.000Z</time>
      </trkpt>
      <trkpt lat="33.862208" lon="-115.693176">
        <ele>616.097656</ele>
        <time>2020-06-20T20:42:35.000Z</time>
      </trkpt>
      <trkpt lat="33.86255" lon="-115.692502">
        <ele>615.296875</ele>
        <time>2020-06-20T20:42:41.000Z</time>
      </trkpt>
      <trkpt lat="33.862888" lon="-115.691826">
        <ele>613.898438</ele>
        <time>2020-06-20T20:42:47.000Z</time>
      </trkpt>
      <trkpt lat="33.863196" lon="-115.691138">
        <ele>612.898438</ele>
        <time>2020-06-20T20:42:53.000Z</time>
      </trkpt>
      <trkpt lat="33.863502" lon="-115.690468">
        <ele>612.000000</ele>
        <time>2020-06-20T20:42:59.000Z</time>
      </trkpt>
      <trkpt lat="33.863683" lon="-115.690021">
        <ele>611.597656</ele>
        <time>2020-06-20T20:43:03.000Z</time>
      </trkpt>
      <trkpt lat="33.863789" lon="-115.689678">
        <ele>611.597656</ele>
        <time>2020-06-20T20:43:06.000Z</time>
      </trkpt>
      <trkpt lat="33.86396" lon="-115.689101">
        <ele>610.597656</ele>
        <time>2020-06-20T20:43:11.000Z</time>
      </trkpt>
      <trkpt lat="33.864052" lon="-115.688879">
        <ele>610.296875</ele>
        <time>2020-06-20T20:43:13.000Z</time>
      </trkpt>
      <trkpt lat="33.864103" lon="-115.688773">
        <ele>610.000000</ele>
        <time>2020-06-20T20:43:14.000Z</time>
      </trkpt>
      <trkpt lat="33.86416" lon="-115.688671">
        <ele>609.699219</ele>
        <time>2020-06-20T20:43:15.000Z</time>
      </trkpt>
      <trkpt lat="33.864223" lon="-115.688577">
        <ele>609.500000</ele>
        <time>2020-06-20T20:43:16.000Z</time>
      </trkpt>
      <trkpt lat="33.86429" lon="-115.688492">
        <ele>609.500000</ele>
        <time>2020-06-20T20:43:17.000Z</time>
      </trkpt>
      <trkpt lat="33.864355" lon="-115.68842">
        <ele>609.699219</ele>
        <time>2020-06-20T20:43:18.000Z</time>
      </trkpt>
      <trkpt lat="33.864484" lon="-115.688296">
        <ele>609.597656</ele>
        <time>2020-06-20T20:43:20.000Z</time>
      </trkpt>
      <trkpt lat="33.864667" lon="-115.688141">
        <ele>609.796875</ele>
        <time>2020-06-20T20:43:23.000Z</time>
      </trkpt>
      <trkpt lat="33.864779" lon="-115.688062">
        <ele>609.398438</ele>
        <time>2020-06-20T20:43:25.000Z</time>
      </trkpt>
      <trkpt lat="33.864844" lon="-115.688023">
        <ele>609.199219</ele>
        <time>2020-06-20T20:43:26.000Z</time>
      </trkpt>
      <trkpt lat="33.865379" lon="-115.687703">
        <ele>607.296875</ele>
        <time>2020-06-20T20:43:33.000Z</time>
      </trkpt>
      <trkpt lat="33.865689" lon="-115.687455">
        <ele>606.398438</ele>
        <time>2020-06-20T20:43:37.000Z</time>
      </trkpt>
      <trkpt lat="33.866153" lon="-115.687027">
        <ele>604.796875</ele>
        <time>2020-06-20T20:43:43.000Z</time>
      </trkpt>
      <trkpt lat="33.86663" lon="-115.686614">
        <ele>603.000000</ele>
        <time>2020-06-20T20:43:49.000Z</time>
      </trkpt>
      <trkpt lat="33.867126" lon="-115.68619">
        <ele>601.398438</ele>
        <time>2020-06-20T20:43:55.000Z</time>
      </trkpt>
      <trkpt lat="33.867295" lon="-115.686041">
        <ele>600.796875</ele>
        <time>2020-06-20T20:43:57.000Z</time>
      </trkpt>
      <trkpt lat="33.867756" lon="-115.685696">
        <ele>599.500000</ele>
        <time>2020-06-20T20:44:02.000Z</time>
      </trkpt>
      <trkpt lat="33.868046" lon="-115.685521">
        <ele>598.296875</ele>
        <time>2020-06-20T20:44:05.000Z</time>
      </trkpt>
      <trkpt lat="33.868624" lon="-115.685211">
        <ele>596.199219</ele>
        <time>2020-06-20T20:44:11.000Z</time>
      </trkpt>
      <trkpt lat="33.869169" lon="-115.684869">
        <ele>594.796875</ele>
        <time>2020-06-20T20:44:17.000Z</time>
      </trkpt>
      <trkpt lat="33.869254" lon="-115.684799">
        <ele>594.500000</ele>
        <time>2020-06-20T20:44:18.000Z</time>
      </trkpt>
      <trkpt lat="33.869337" lon="-115.684725">
        <ele>594.097656</ele>
        <time>2020-06-20T20:44:19.000Z</time>
      </trkpt>
      <trkpt lat="33.869416" lon="-115.684643">
        <ele>593.898438</ele>
        <time>2020-06-20T20:44:20.000Z</time>
      </trkpt>
      <trkpt lat="33.869489" lon="-115.684558">
        <ele>593.597656</ele>
        <time>2020-06-20T20:44:21.000Z</time>
      </trkpt>
      <trkpt lat="33.869627" lon="-115.684375">
        <ele>593.199219</ele>
        <time>2020-06-20T20:44:23.000Z</time>
      </trkpt>
      <trkpt lat="33.870035" lon="-115.683799">
        <ele>592.000000</ele>
        <time>2020-06-20T20:44:29.000Z</time>
      </trkpt>
      <trkpt lat="33.870473" lon="-115.683205">
        <ele>590.796875</ele>
        <time>2020-06-20T20:44:35.000Z</time>
      </trkpt>
      <trkpt lat="33.870775" lon="-115.682786">
        <ele>590.097656</ele>
        <time>2020-06-20T20:44:39.000Z</time>
      </trkpt>
      <trkpt lat="33.871113" lon="-115.682227">
        <ele>589.097656</ele>
        <time>2020-06-20T20:44:44.000Z</time>
      </trkpt>
      <trkpt lat="33.871481" lon="-115.681643">
        <ele>587.898438</ele>
        <time>2020-06-20T20:44:51.000Z</time>
      </trkpt>
      <trkpt lat="33.871521" lon="-115.681594">
        <ele>587.500000</ele>
        <time>2020-06-20T20:44:52.000Z</time>
      </trkpt>
      <trkpt lat="33.871563" lon="-115.681553">
        <ele>587.000000</ele>
        <time>2020-06-20T20:44:53.000Z</time>
      </trkpt>
      <trkpt lat="33.871608" lon="-115.681512">
        <ele>586.500000</ele>
        <time>2020-06-20T20:44:54.000Z</time>
      </trkpt>
      <trkpt lat="33.871662" lon="-115.681472">
        <ele>586.000000</ele>
        <time>2020-06-20T20:44:55.000Z</time>
      </trkpt>
      <trkpt lat="33.871919" lon="-115.681298">
        <ele>585.199219</ele>
        <time>2020-06-20T20:44:59.000Z</time>
      </trkpt>
      <trkpt lat="33.871981" lon="-115.681241">
        <ele>585.097656</ele>
        <time>2020-06-20T20:45:00.000Z</time>
      </trkpt>
      <trkpt lat="33.872039" lon="-115.681175">
        <ele>584.898438</ele>
        <time>2020-06-20T20:45:01.000Z</time>
      </trkpt>
      <trkpt lat="33.87209" lon="-115.6811">
        <ele>584.699219</ele>
        <time>2020-06-20T20:45:02.000Z</time>
      </trkpt>
      <trkpt lat="33.872133" lon="-115.681018">
        <ele>584.097656</ele>
        <time>2020-06-20T20:45:03.000Z</time>
      </trkpt>
      <trkpt lat="33.872168" lon="-115.68093">
        <ele>583.796875</ele>
        <time>2020-06-20T20:45:04.000Z</time>
      </trkpt>
      <trkpt lat="33.872195" lon="-115.680837">
        <ele>583.597656</ele>
        <time>2020-06-20T20:45:05.000Z</time>
      </trkpt>
      <trkpt lat="33.872214" lon="-115.680742">
        <ele>583.398438</ele>
        <time>2020-06-20T20:45:06.000Z</time>
      </trkpt>
      <trkpt lat="33.872225" lon="-115.680644">
        <ele>582.796875</ele>
        <time>2020-06-20T20:45:07.000Z</time>
      </trkpt>
      <trkpt lat="33.872231" lon="-115.680545">
        <ele>582.398438</ele>
        <time>2020-06-20T20:45:08.000Z</time>
      </trkpt>
      <trkpt lat="33.872229" lon="-115.680449">
        <ele>582.500000</ele>
        <time>2020-06-20T20:45:09.000Z</time>
      </trkpt>
      <trkpt lat="33.872223" lon="-115.680355">
        <ele>582.500000</ele>
        <time>2020-06-20T20:45:10.000Z</time>
      </trkpt>
      <trkpt lat="33.872192" lon="-115.679977">
        <ele>581.097656</ele>
        <time>2020-06-20T20:45:14.000Z</time>
      </trkpt>
      <trkpt lat="33.872201" lon="-115.679232">
        <ele>585.097656</ele>
        <time>2020-06-20T20:45:23.000Z</time>
      </trkpt>
      <trkpt lat="33.872206" lon="-115.679143">
        <ele>585.398438</ele>
        <time>2020-06-20T20:45:24.000Z</time>
      </trkpt>
      <trkpt lat="33.872216" lon="-115.679051">
        <ele>585.500000</ele>
        <time>2020-06-20T20:45:25.000Z</time>
      </trkpt>
      <trkpt lat="33.872231" lon="-115.678958">
        <ele>585.296875</ele>
        <time>2020-06-20T20:45:26.000Z</time>
      </trkpt>
      <trkpt lat="33.872249" lon="-115.67886">
        <ele>585.398438</ele>
        <time>2020-06-20T20:45:27.000Z</time>
      </trkpt>
      <trkpt lat="33.872274" lon="-115.67876">
        <ele>585.296875</ele>
        <time>2020-06-20T20:45:28.000Z</time>
      </trkpt>
      <trkpt lat="33.87234" lon="-115.678559">
        <ele>585.296875</ele>
        <time>2020-06-20T20:45:30.000Z</time>
      </trkpt>
      <trkpt lat="33.87258" lon="-115.677953">
        <ele>584.199219</ele>
        <time>2020-06-20T20:45:36.000Z</time>
      </trkpt>
      <trkpt lat="33.872602" lon="-115.677856">
        <ele>583.898438</ele>
        <time>2020-06-20T20:45:37.000Z</time>
      </trkpt>
      <trkpt lat="33.872615" lon="-115.677761">
        <ele>584.097656</ele>
        <time>2020-06-20T20:45:38.000Z</time>
      </trkpt>
      <trkpt lat="33.872733" lon="-115.676966">
        <ele>585.500000</ele>
        <time>2020-06-20T20:45:45.000Z</time>
      </trkpt>
      <trkpt lat="33.872934" lon="-115.676226">
        <ele>585.796875</ele>
        <time>2020-06-20T20:45:51.000Z</time>
      </trkpt>
      <trkpt lat="33.872974" lon="-115.676108">
        <ele>585.398438</ele>
        <time>2020-06-20T20:45:52.000Z</time>
      </trkpt>
      <trkpt lat="33.873021" lon="-115.675992">
        <ele>585.199219</ele>
        <time>2020-06-20T20:45:53.000Z</time>
      </trkpt>
      <trkpt lat="33.873076" lon="-115.67588">
        <ele>585.000000</ele>
        <time>2020-06-20T20:45:54.000Z</time>
      </trkpt>
      <trkpt lat="33.873137" lon="-115.675771">
        <ele>584.898438</ele>
        <time>2020-06-20T20:45:55.000Z</time>
      </trkpt>
      <trkpt lat="33.873202" lon="-115.675666">
        <ele>584.699219</ele>
        <time>2020-06-20T20:45:56.000Z</time>
      </trkpt>
      <trkpt lat="33.873397" lon="-115.675385">
        <ele>583.398438</ele>
        <time>2020-06-20T20:45:59.000Z</time>
      </trkpt>
      <trkpt lat="33.873438" lon="-115.675298">
        <ele>583.199219</ele>
        <time>2020-06-20T20:46:00.000Z</time>
      </trkpt>
      <trkpt lat="33.873465" lon="-115.675211">
        <ele>583.000000</ele>
        <time>2020-06-20T20:46:01.000Z</time>
      </trkpt>
      <trkpt lat="33.873486" lon="-115.675125">
        <ele>582.699219</ele>
        <time>2020-06-20T20:46:02.000Z</time>
      </trkpt>
      <trkpt lat="33.873499" lon="-115.67504">
        <ele>582.199219</ele>
        <time>2020-06-20T20:46:03.000Z</time>
      </trkpt>
      <trkpt lat="33.873567" lon="-115.674306">
        <ele>579.597656</ele>
        <time>2020-06-20T20:46:11.000Z</time>
      </trkpt>
      <trkpt lat="33.87357" lon="-115.674211">
        <ele>579.296875</ele>
        <time>2020-06-20T20:46:12.000Z</time>
      </trkpt>
      <trkpt lat="33.873565" lon="-115.674123">
        <ele>579.199219</ele>
        <time>2020-06-20T20:46:13.000Z</time>
      </trkpt>
      <trkpt lat="33.873547" lon="-115.674044">
        <ele>579.000000</ele>
        <time>2020-06-20T20:46:14.000Z</time>
      </trkpt>
      <trkpt lat="33.873519" lon="-115.673979">
        <ele>578.898438</ele>
        <time>2020-06-20T20:46:15.000Z</time>
      </trkpt>
      <trkpt lat="33.873486" lon="-115.673926">
        <ele>578.398438</ele>
        <time>2020-06-20T20:46:16.000Z</time>
      </trkpt>
      <trkpt lat="33.873451" lon="-115.673882">
        <ele>577.796875</ele>
        <time>2020-06-20T20:46:17.000Z</time>
      </trkpt>
      <trkpt lat="33.87335" lon="-115.673746">
        <ele>577.699219</ele>
        <time>2020-06-20T20:46:21.000Z</time>
      </trkpt>
      <trkpt lat="33.873039" lon="-115.673258">
        <ele>577.296875</ele>
        <time>2020-06-20T20:46:29.000Z</time>
      </trkpt>
      <trkpt lat="33.872925" lon="-115.673056">
        <ele>576.898438</ele>
        <time>2020-06-20T20:46:32.000Z</time>
      </trkpt>
      <trkpt lat="33.872882" lon="-115.672996">
        <ele>576.796875</ele>
        <time>2020-06-20T20:46:33.000Z</time>
      </trkpt>
      <trkpt lat="33.872839" lon="-115.67294">
        <ele>576.597656</ele>
        <time>2020-06-20T20:46:34.000Z</time>
      </trkpt>
      <trkpt lat="33.872792" lon="-115.672892">
        <ele>576.296875</ele>
        <time>2020-06-20T20:46:35.000Z</time>
      </trkpt>
      <trkpt lat="33.872742" lon="-115.672849">
        <ele>576.097656</ele>
        <time>2020-06-20T20:46:36.000Z</time>
      </trkpt>
      <trkpt lat="33.872605" lon="-115.672738">
        <ele>574.597656</ele>
        <time>2020-06-20T20:46:39.000Z</time>
      </trkpt>
      <trkpt lat="33.872572" lon="-115.672696">
        <ele>574.296875</ele>
        <time>2020-06-20T20:46:40.000Z</time>
      </trkpt>
      <trkpt lat="33.872547" lon="-115.672641">
        <ele>574.500000</ele>
        <time>2020-06-20T20:46:41.000Z</time>
      </trkpt>
      <trkpt lat="33.872532" lon="-115.672573">
        <ele>574.398438</ele>
        <time>2020-06-20T20:46:42.000Z</time>
      </trkpt>
      <trkpt lat="33.872367" lon="-115.671806">
        <ele>578.097656</ele>
        <time>2020-06-20T20:46:51.000Z</time>
      </trkpt>
      <trkpt lat="33.872321" lon="-115.671526">
        <ele>578.699219</ele>
        <time>2020-06-20T20:46:54.000Z</time>
      </trkpt>
      <trkpt lat="33.872305" lon="-115.67133">
        <ele>579.000000</ele>
        <time>2020-06-20T20:46:56.000Z</time>
      </trkpt>
      <trkpt lat="33.872301" lon="-115.67123">
        <ele>579.097656</ele>
        <time>2020-06-20T20:46:57.000Z</time>
      </trkpt>
      <trkpt lat="33.872302" lon="-115.671129">
        <ele>579.000000</ele>
        <time>2020-06-20T20:46:58.000Z</time>
      </trkpt>
      <trkpt lat="33.872302" lon="-115.670827">
        <ele>579.699219</ele>
        <time>2020-06-20T20:47:01.000Z</time>
      </trkpt>
      <trkpt lat="33.87229" lon="-115.670731">
        <ele>579.898438</ele>
        <time>2020-06-20T20:47:02.000Z</time>
      </trkpt>
      <trkpt lat="33.87227" lon="-115.670637">
        <ele>580.398438</ele>
        <time>2020-06-20T20:47:03.000Z</time>
      </trkpt>
      <trkpt lat="33.872239" lon="-115.670552">
        <ele>580.296875</ele>
        <time>2020-06-20T20:47:04.000Z</time>
      </trkpt>
      <trkpt lat="33.872192" lon="-115.670477">
        <ele>580.597656</ele>
        <time>2020-06-20T20:47:05.000Z</time>
      </trkpt>
      <trkpt lat="33.872135" lon="-115.670414">
        <ele>580.898438</ele>
        <time>2020-06-20T20:47:06.000Z</time>
      </trkpt>
      <trkpt lat="33.8718" lon="-115.670039">
        <ele>583.597656</ele>
        <time>2020-06-20T20:47:12.000Z</time>
      </trkpt>
      <trkpt lat="33.871497" lon="-115.669592">
        <ele>585.796875</ele>
        <time>2020-06-20T20:47:19.000Z</time>
      </trkpt>
      <trkpt lat="33.87138" lon="-115.669392">
        <ele>586.199219</ele>
        <time>2020-06-20T20:47:22.000Z</time>
      </trkpt>
      <trkpt lat="33.871037" lon="-115.66874">
        <ele>587.796875</ele>
        <time>2020-06-20T20:47:30.000Z</time>
      </trkpt>
      <trkpt lat="33.870681" lon="-115.668135">
        <ele>588.398438</ele>
        <time>2020-06-20T20:47:36.000Z</time>
      </trkpt>
      <trkpt lat="33.870332" lon="-115.667575">
        <ele>589.000000</ele>
        <time>2020-06-20T20:47:41.000Z</time>
      </trkpt>
      <trkpt lat="33.869952" lon="-115.666998">
        <ele>589.898438</ele>
        <time>2020-06-20T20:47:46.000Z</time>
      </trkpt>
      <trkpt lat="33.869706" lon="-115.666671">
        <ele>591.199219</ele>
        <time>2020-06-20T20:47:49.000Z</time>
      </trkpt>
      <trkpt lat="33.869451" lon="-115.666399">
        <ele>592.097656</ele>
        <time>2020-06-20T20:47:52.000Z</time>
      </trkpt>
      <trkpt lat="33.868985" lon="-115.66596">
        <ele>593.398438</ele>
        <time>2020-06-20T20:47:58.000Z</time>
      </trkpt>
      <trkpt lat="33.868752" lon="-115.665778">
        <ele>594.097656</ele>
        <time>2020-06-20T20:48:01.000Z</time>
      </trkpt>
      <trkpt lat="33.868504" lon="-115.66562">
        <ele>595.000000</ele>
        <time>2020-06-20T20:48:04.000Z</time>
      </trkpt>
      <trkpt lat="33.867955" lon="-115.66533">
        <ele>595.398438</ele>
        <time>2020-06-20T20:48:12.000Z</time>
      </trkpt>
      <trkpt lat="33.86794" lon="-115.665324">
        <ele>595.296875</ele>
        <time>2020-06-20T20:49:02.000Z</time>
      </trkpt>
      <trkpt lat="33.86785" lon="-115.665279">
        <ele>595.398438</ele>
        <time>2020-06-20T20:49:03.000Z</time>
      </trkpt>
      <trkpt lat="33.867814" lon="-115.665258">
        <ele>595.398438</ele>
        <time>2020-06-20T20:49:05.000Z</time>
      </trkpt>
      <trkpt lat="33.867725" lon="-115.665198">
        <ele>595.500000</ele>
        <time>2020-06-20T20:49:06.000Z</time>
      </trkpt>
      <trkpt lat="33.867675" lon="-115.665157">
        <ele>595.296875</ele>
        <time>2020-06-20T20:49:07.000Z</time>
      </trkpt>
      <trkpt lat="33.867624" lon="-115.665108">
        <ele>595.097656</ele>
        <time>2020-06-20T20:49:08.000Z</time>
      </trkpt>
      <trkpt lat="33.867461" lon="-115.664947">
        <ele>594.898438</ele>
        <time>2020-06-20T20:49:11.000Z</time>
      </trkpt>
      <trkpt lat="33.8674" lon="-115.6649">
        <ele>594.398438</ele>
        <time>2020-06-20T20:49:12.000Z</time>
      </trkpt>
      <trkpt lat="33.867337" lon="-115.66486">
        <ele>593.796875</ele>
        <time>2020-06-20T20:49:13.000Z</time>
      </trkpt>
      <trkpt lat="33.867275" lon="-115.664826">
        <ele>593.199219</ele>
        <time>2020-06-20T20:49:14.000Z</time>
      </trkpt>
      <trkpt lat="33.867102" lon="-115.664741">
        <ele>592.296875</ele>
        <time>2020-06-20T20:49:17.000Z</time>
      </trkpt>
      <trkpt lat="33.867058" lon="-115.664712">
        <ele>592.296875</ele>
        <time>2020-06-20T20:49:18.000Z</time>
      </trkpt>
      <trkpt lat="33.867022" lon="-115.664679">
        <ele>592.097656</ele>
        <time>2020-06-20T20:49:19.000Z</time>
      </trkpt>
      <trkpt lat="33.866987" lon="-115.66464">
        <ele>591.898438</ele>
        <time>2020-06-20T20:49:20.000Z</time>
      </trkpt>
      <trkpt lat="33.866868" lon="-115.664509">
        <ele>591.597656</ele>
        <time>2020-06-20T20:49:23.000Z</time>
      </trkpt>
      <trkpt lat="33.866831" lon="-115.664459">
        <ele>591.597656</ele>
        <time>2020-06-20T20:49:24.000Z</time>
      </trkpt>
      <trkpt lat="33.8668" lon="-115.664405">
        <ele>591.296875</ele>
        <time>2020-06-20T20:49:25.000Z</time>
      </trkpt>
      <trkpt lat="33.866773" lon="-115.664346">
        <ele>591.398438</ele>
        <time>2020-06-20T20:49:26.000Z</time>
      </trkpt>
      <trkpt lat="33.866756" lon="-115.66428">
        <ele>591.500000</ele>
        <time>2020-06-20T20:49:27.000Z</time>
      </trkpt>
      <trkpt lat="33.866657" lon="-115.663888">
        <ele>591.796875</ele>
        <time>2020-06-20T20:49:32.000Z</time>
      </trkpt>
      <trkpt lat="33.866628" lon="-115.663811">
        <ele>591.898438</ele>
        <time>2020-06-20T20:49:33.000Z</time>
      </trkpt>
      <trkpt lat="33.866595" lon="-115.663741">
        <ele>591.898438</ele>
        <time>2020-06-20T20:49:34.000Z</time>
      </trkpt>
      <trkpt lat="33.866558" lon="-115.663676">
        <ele>592.000000</ele>
        <time>2020-06-20T20:49:35.000Z</time>
      </trkpt>
      <trkpt lat="33.866518" lon="-115.663617">
        <ele>592.097656</ele>
        <time>2020-06-20T20:49:36.000Z</time>
      </trkpt>
      <trkpt lat="33.866474" lon="-115.663562">
        <ele>592.097656</ele>
        <time>2020-06-20T20:49:37.000Z</time>
      </trkpt>
      <trkpt lat="33.866381" lon="-115.663456">
        <ele>592.500000</ele>
        <time>2020-06-20T20:49:39.000Z</time>
      </trkpt>
      <trkpt lat="33.86633" lon="-115.663407">
        <ele>592.597656</ele>
        <time>2020-06-20T20:49:40.000Z</time>
      </trkpt>
      <trkpt lat="33.866184" lon="-115.663288">
        <ele>593.199219</ele>
        <time>2020-06-20T20:49:43.000Z</time>
      </trkpt>
      <trkpt lat="33.866004" lon="-115.663162">
        <ele>593.199219</ele>
        <time>2020-06-20T20:49:47.000Z</time>
      </trkpt>
      <trkpt lat="33.865952" lon="-115.663111">
        <ele>593.296875</ele>
        <time>2020-06-20T20:49:48.000Z</time>
      </trkpt>
      <trkpt lat="33.865901" lon="-115.663052">
        <ele>593.500000</ele>
        <time>2020-06-20T20:49:49.000Z</time>
      </trkpt>
      <trkpt lat="33.865741" lon="-115.662871">
        <ele>594.097656</ele>
        <time>2020-06-20T20:49:52.000Z</time>
      </trkpt>
      <trkpt lat="33.865678" lon="-115.662823">
        <ele>594.097656</ele>
        <time>2020-06-20T20:49:53.000Z</time>
      </trkpt>
      <trkpt lat="33.865614" lon="-115.662779">
        <ele>594.000000</ele>
        <time>2020-06-20T20:49:54.000Z</time>
      </trkpt>
      <trkpt lat="33.865428" lon="-115.662664">
        <ele>594.296875</ele>
        <time>2020-06-20T20:49:57.000Z</time>
      </trkpt>
      <trkpt lat="33.865379" lon="-115.662619">
        <ele>594.500000</ele>
        <time>2020-06-20T20:49:58.000Z</time>
      </trkpt>
      <trkpt lat="33.865299" lon="-115.662524">
        <ele>594.097656</ele>
        <time>2020-06-20T20:50:00.000Z</time>
      </trkpt>
      <trkpt lat="33.865068" lon="-115.662243">
        <ele>595.296875</ele>
        <time>2020-06-20T20:50:06.000Z</time>
      </trkpt>
      <trkpt lat="33.864939" lon="-115.662042">
        <ele>595.699219</ele>
        <time>2020-06-20T20:50:09.000Z</time>
      </trkpt>
      <trkpt lat="33.864821" lon="-115.661828">
        <ele>595.699219</ele>
        <time>2020-06-20T20:50:12.000Z</time>
      </trkpt>
      <trkpt lat="33.864792" lon="-115.661758">
        <ele>595.597656</ele>
        <time>2020-06-20T20:50:13.000Z</time>
      </trkpt>
      <trkpt lat="33.86477" lon="-115.661689">
        <ele>595.898438</ele>
        <time>2020-06-20T20:50:14.000Z</time>
      </trkpt>
      <trkpt lat="33.864758" lon="-115.661627">
        <ele>596.097656</ele>
        <time>2020-06-20T20:50:15.000Z</time>
      </trkpt>
      <trkpt lat="33.864714" lon="-115.661406">
        <ele>595.898438</ele>
        <time>2020-06-20T20:50:22.000Z</time>
      </trkpt>
      <trkpt lat="33.864707" lon="-115.66136">
        <ele>596.199219</ele>
        <time>2020-06-20T20:50:24.000Z</time>
      </trkpt>
      <trkpt lat="33.864705" lon="-115.661253">
        <ele>596.500000</ele>
        <time>2020-06-20T20:50:25.000Z</time>
      </trkpt>
      <trkpt lat="33.864709" lon="-115.6612">
        <ele>596.597656</ele>
        <time>2020-06-20T20:50:27.000Z</time>
      </trkpt>
      <trkpt lat="33.864728" lon="-115.661012">
        <ele>597.199219</ele>
        <time>2020-06-20T20:50:33.000Z</time>
      </trkpt>
      <trkpt lat="33.864729" lon="-115.661012">
        <ele>597.796875</ele>
        <time>2020-06-20T20:50:39.000Z</time>
      </trkpt>
      <trkpt lat="33.86473" lon="-115.660874">
        <ele>597.699219</ele>
        <time>2020-06-20T20:50:40.000Z</time>
      </trkpt>
      <trkpt lat="33.864723" lon="-115.660819">
        <ele>597.796875</ele>
        <time>2020-06-20T20:50:41.000Z</time>
      </trkpt>
      <trkpt lat="33.8647" lon="-115.660707">
        <ele>598.097656</ele>
        <time>2020-06-20T20:50:43.000Z</time>
      </trkpt>
      <trkpt lat="33.864663" lon="-115.660577">
        <ele>598.199219</ele>
        <time>2020-06-20T20:50:45.000Z</time>
      </trkpt>
      <trkpt lat="33.864621" lon="-115.660449">
        <ele>597.898438</ele>
        <time>2020-06-20T20:50:47.000Z</time>
      </trkpt>
      <trkpt lat="33.864594" lon="-115.660383">
        <ele>597.699219</ele>
        <time>2020-06-20T20:50:48.000Z</time>
      </trkpt>
      <trkpt lat="33.864563" lon="-115.660323">
        <ele>597.898438</ele>
        <time>2020-06-20T20:50:49.000Z</time>
      </trkpt>
      <trkpt lat="33.864502" lon="-115.660227">
        <ele>597.796875</ele>
        <time>2020-06-20T20:50:51.000Z</time>
      </trkpt>
      <trkpt lat="33.864387" lon="-115.660026">
        <ele>595.898438</ele>
        <time>2020-06-20T20:51:22.000Z</time>
      </trkpt>
      <trkpt lat="33.864371" lon="-115.659987">
        <ele>596.296875</ele>
        <time>2020-06-20T20:51:24.000Z</time>
      </trkpt>
      <trkpt lat="33.864345" lon="-115.659903">
        <ele>596.898438</ele>
        <time>2020-06-20T20:51:25.000Z</time>
      </trkpt>
      <trkpt lat="33.864335" lon="-115.659858">
        <ele>597.398438</ele>
        <time>2020-06-20T20:51:27.000Z</time>
      </trkpt>
      <trkpt lat="33.864308" lon="-115.659691">
        <ele>598.199219</ele>
        <time>2020-06-20T20:51:29.000Z</time>
      </trkpt>
      <trkpt lat="33.864304" lon="-115.659624">
        <ele>598.296875</ele>
        <time>2020-06-20T20:51:30.000Z</time>
      </trkpt>
      <trkpt lat="33.864305" lon="-115.659315">
        <ele>599.500000</ele>
        <time>2020-06-20T20:51:34.000Z</time>
      </trkpt>
      <trkpt lat="33.864312" lon="-115.659165">
        <ele>600.097656</ele>
        <time>2020-06-20T20:51:36.000Z</time>
      </trkpt>
      <trkpt lat="33.864321" lon="-115.659092">
        <ele>600.500000</ele>
        <time>2020-06-20T20:51:37.000Z</time>
      </trkpt>
      <trkpt lat="33.864433" lon="-115.658354">
        <ele>605.097656</ele>
        <time>2020-06-20T20:51:48.000Z</time>
      </trkpt>
      <trkpt lat="33.864489" lon="-115.657907">
        <ele>607.500000</ele>
        <time>2020-06-20T20:51:54.000Z</time>
      </trkpt>
      <trkpt lat="33.864486" lon="-115.657829">
        <ele>607.699219</ele>
        <time>2020-06-20T20:51:55.000Z</time>
      </trkpt>
      <trkpt lat="33.864478" lon="-115.657749">
        <ele>607.597656</ele>
        <time>2020-06-20T20:51:56.000Z</time>
      </trkpt>
      <trkpt lat="33.864461" lon="-115.65767">
        <ele>607.597656</ele>
        <time>2020-06-20T20:51:57.000Z</time>
      </trkpt>
      <trkpt lat="33.864435" lon="-115.657597">
        <ele>607.097656</ele>
        <time>2020-06-20T20:51:58.000Z</time>
      </trkpt>
      <trkpt lat="33.864397" lon="-115.657527">
        <ele>606.597656</ele>
        <time>2020-06-20T20:51:59.000Z</time>
      </trkpt>
      <trkpt lat="33.864353" lon="-115.65746">
        <ele>606.097656</ele>
        <time>2020-06-20T20:52:00.000Z</time>
      </trkpt>
      <trkpt lat="33.864269" lon="-115.657326">
        <ele>605.000000</ele>
        <time>2020-06-20T20:52:02.000Z</time>
      </trkpt>
      <trkpt lat="33.864236" lon="-115.65726">
        <ele>604.699219</ele>
        <time>2020-06-20T20:52:03.000Z</time>
      </trkpt>
      <trkpt lat="33.864209" lon="-115.657198">
        <ele>604.500000</ele>
        <time>2020-06-20T20:52:04.000Z</time>
      </trkpt>
      <trkpt lat="33.86419" lon="-115.657138">
        <ele>604.199219</ele>
        <time>2020-06-20T20:52:05.000Z</time>
      </trkpt>
      <trkpt lat="33.864103" lon="-115.656877">
        <ele>602.796875</ele>
        <time>2020-06-20T20:52:09.000Z</time>
      </trkpt>
      <trkpt lat="33.864063" lon="-115.656818">
        <ele>602.199219</ele>
        <time>2020-06-20T20:52:10.000Z</time>
      </trkpt>
      <trkpt lat="33.864012" lon="-115.656775">
        <ele>601.898438</ele>
        <time>2020-06-20T20:52:11.000Z</time>
      </trkpt>
      <trkpt lat="33.863958" lon="-115.656746">
        <ele>601.699219</ele>
        <time>2020-06-20T20:52:12.000Z</time>
      </trkpt>
      <trkpt lat="33.863823" lon="-115.656683">
        <ele>601.097656</ele>
        <time>2020-06-20T20:52:18.000Z</time>
      </trkpt>
      <trkpt lat="33.863804" lon="-115.656669">
        <ele>601.097656</ele>
        <time>2020-06-20T20:52:20.000Z</time>
      </trkpt>
      <trkpt lat="33.863762" lon="-115.656603">
        <ele>601.097656</ele>
        <time>2020-06-20T20:52:21.000Z</time>
      </trkpt>
      <trkpt lat="33.863744" lon="-115.656553">
        <ele>601.000000</ele>
        <time>2020-06-20T20:52:23.000Z</time>
      </trkpt>
      <trkpt lat="33.863587" lon="-115.656012">
        <ele>599.597656</ele>
        <time>2020-06-20T20:52:31.000Z</time>
      </trkpt>
      <trkpt lat="33.863573" lon="-115.655944">
        <ele>599.699219</ele>
        <time>2020-06-20T20:52:32.000Z</time>
      </trkpt>
      <trkpt lat="33.863549" lon="-115.655808">
        <ele>599.097656</ele>
        <time>2020-06-20T20:52:34.000Z</time>
      </trkpt>
      <trkpt lat="33.863541" lon="-115.655739">
        <ele>598.699219</ele>
        <time>2020-06-20T20:52:35.000Z</time>
      </trkpt>
      <trkpt lat="33.863541" lon="-115.655667">
        <ele>598.199219</ele>
        <time>2020-06-20T20:52:36.000Z</time>
      </trkpt>
      <trkpt lat="33.863548" lon="-115.655592">
        <ele>597.898438</ele>
        <time>2020-06-20T20:52:37.000Z</time>
      </trkpt>
      <trkpt lat="33.863559" lon="-115.655515">
        <ele>597.699219</ele>
        <time>2020-06-20T20:52:38.000Z</time>
      </trkpt>
      <trkpt lat="33.863689" lon="-115.654729">
        <ele>597.097656</ele>
        <time>2020-06-20T20:52:48.000Z</time>
      </trkpt>
      <trkpt lat="33.863766" lon="-115.654007">
        <ele>598.000000</ele>
        <time>2020-06-20T20:52:56.000Z</time>
      </trkpt>
      <trkpt lat="33.863829" lon="-115.653225">
        <ele>595.699219</ele>
        <time>2020-06-20T20:53:08.000Z</time>
      </trkpt>
      <trkpt lat="33.863865" lon="-115.65285">
        <ele>592.199219</ele>
        <time>2020-06-20T20:53:18.000Z</time>
      </trkpt>
      <trkpt lat="33.863868" lon="-115.652821">
        <ele>593.699219</ele>
        <time>2020-06-20T20:53:21.000Z</time>
      </trkpt>
      <trkpt lat="33.863884" lon="-115.652709">
        <ele>593.796875</ele>
        <time>2020-06-20T20:53:22.000Z</time>
      </trkpt>
      <trkpt lat="33.863985" lon="-115.652036">
        <ele>594.296875</ele>
        <time>2020-06-20T20:53:37.000Z</time>
      </trkpt>
      <trkpt lat="33.863987" lon="-115.652003">
        <ele>594.296875</ele>
        <time>2020-06-20T20:53:40.000Z</time>
      </trkpt>
      <trkpt lat="33.863972" lon="-115.651928">
        <ele>593.296875</ele>
        <time>2020-06-20T20:53:42.000Z</time>
      </trkpt>
      <trkpt lat="33.863942" lon="-115.651883">
        <ele>592.796875</ele>
        <time>2020-06-20T20:53:45.000Z</time>
      </trkpt>
      <trkpt lat="33.863891" lon="-115.651845">
        <ele>592.097656</ele>
        <time>2020-06-20T20:53:47.000Z</time>
      </trkpt>
      <trkpt lat="33.86385" lon="-115.651825">
        <ele>590.898438</ele>
        <time>2020-06-20T20:53:50.000Z</time>
      </trkpt>
      <trkpt lat="33.863692" lon="-115.651734">
        <ele>588.296875</ele>
        <time>2020-06-20T20:53:56.000Z</time>
      </trkpt>
      <trkpt lat="33.863674" lon="-115.651718">
        <ele>588.398438</ele>
        <time>2020-06-20T20:54:00.000Z</time>
      </trkpt>
      <trkpt lat="33.86364" lon="-115.651644">
        <ele>588.097656</ele>
        <time>2020-06-20T20:54:02.000Z</time>
      </trkpt>
      <trkpt lat="33.863635" lon="-115.651607">
        <ele>588.597656</ele>
        <time>2020-06-20T20:54:07.000Z</time>
      </trkpt>
      <trkpt lat="33.863638" lon="-115.651515">
        <ele>588.199219</ele>
        <time>2020-06-20T20:54:08.000Z</time>
      </trkpt>
      <trkpt lat="33.863647" lon="-115.651489">
        <ele>588.796875</ele>
        <time>2020-06-20T20:54:12.000Z</time>
      </trkpt>
      <trkpt lat="33.863718" lon="-115.651426">
        <ele>589.000000</ele>
        <time>2020-06-20T20:54:13.000Z</time>
      </trkpt>
      <trkpt lat="33.863741" lon="-115.651416">
        <ele>589.699219</ele>
        <time>2020-06-20T20:54:16.000Z</time>
      </trkpt>
      <trkpt lat="33.863828" lon="-115.651383">
        <ele>591.000000</ele>
        <time>2020-06-20T20:54:18.000Z</time>
      </trkpt>
      <trkpt lat="33.863852" lon="-115.651373">
        <ele>591.199219</ele>
        <time>2020-06-20T20:54:21.000Z</time>
      </trkpt>
      <trkpt lat="33.86401" lon="-115.651305">
        <ele>592.796875</ele>
        <time>2020-06-20T20:54:26.000Z</time>
      </trkpt>
      <trkpt lat="33.864028" lon="-115.65129">
        <ele>593.000000</ele>
        <time>2020-06-20T20:54:29.000Z</time>
      </trkpt>
      <trkpt lat="33.864065" lon="-115.651219">
        <ele>593.199219</ele>
        <time>2020-06-20T20:54:30.000Z</time>
      </trkpt>
      <trkpt lat="33.864073" lon="-115.651192">
        <ele>594.097656</ele>
        <time>2020-06-20T20:54:33.000Z</time>
      </trkpt>
      <trkpt lat="33.864084" lon="-115.651103">
        <ele>594.500000</ele>
        <time>2020-06-20T20:54:34.000Z</time>
      </trkpt>
      <trkpt lat="33.864126" lon="-115.650809">
        <ele>596.898438</ele>
        <time>2020-06-20T20:54:42.000Z</time>
      </trkpt>
      <trkpt lat="33.864253" lon="-115.65006">
        <ele>598.398438</ele>
        <time>2020-06-20T20:54:57.000Z</time>
      </trkpt>
      <trkpt lat="33.864405" lon="-115.649283">
        <ele>598.199219</ele>
        <time>2020-06-20T20:55:10.000Z</time>
      </trkpt>
      <trkpt lat="33.864539" lon="-115.648504">
        <ele>600.796875</ele>
        <time>2020-06-20T20:55:24.000Z</time>
      </trkpt>
      <trkpt lat="33.864658" lon="-115.647745">
        <ele>600.796875</ele>
        <time>2020-06-20T20:55:35.000Z</time>
      </trkpt>
      <trkpt lat="33.864767" lon="-115.646948">
        <ele>600.398438</ele>
        <time>2020-06-20T20:55:46.000Z</time>
      </trkpt>
      <trkpt lat="33.864782" lon="-115.646831">
        <ele>599.597656</ele>
        <time>2020-06-20T20:55:50.000Z</time>
      </trkpt>
      <trkpt lat="33.864789" lon="-115.64681">
        <ele>599.097656</ele>
        <time>2020-06-20T20:55:54.000Z</time>
      </trkpt>
      <trkpt lat="33.86481" lon="-115.646721">
        <ele>599.296875</ele>
        <time>2020-06-20T20:55:55.000Z</time>
      </trkpt>
      <trkpt lat="33.864811" lon="-115.646692">
        <ele>599.699219</ele>
        <time>2020-06-20T20:55:58.000Z</time>
      </trkpt>
      <trkpt lat="33.86482" lon="-115.64653">
        <ele>599.699219</ele>
        <time>2020-06-20T20:56:01.000Z</time>
      </trkpt>
      <trkpt lat="33.864825" lon="-115.646487">
        <ele>599.796875</ele>
        <time>2020-06-20T20:56:03.000Z</time>
      </trkpt>
      <trkpt lat="33.864839" lon="-115.646392">
        <ele>599.796875</ele>
        <time>2020-06-20T20:56:04.000Z</time>
      </trkpt>
      <trkpt lat="33.864951" lon="-115.645614">
        <ele>599.597656</ele>
        <time>2020-06-20T20:56:18.000Z</time>
      </trkpt>
      <trkpt lat="33.864955" lon="-115.64558">
        <ele>599.296875</ele>
        <time>2020-06-20T20:56:22.000Z</time>
      </trkpt>
      <trkpt lat="33.864991" lon="-115.645383">
        <ele>599.296875</ele>
        <time>2020-06-20T20:56:28.000Z</time>
      </trkpt>
      <trkpt lat="33.864992" lon="-115.645358">
        <ele>599.500000</ele>
        <time>2020-06-20T20:56:31.000Z</time>
      </trkpt>
      <trkpt lat="33.864995" lon="-115.645203">
        <ele>599.296875</ele>
        <time>2020-06-20T20:56:34.000Z</time>
      </trkpt>
      <trkpt lat="33.864998" lon="-115.645174">
        <ele>599.597656</ele>
        <time>2020-06-20T20:56:37.000Z</time>
      </trkpt>
      <trkpt lat="33.865018" lon="-115.645076">
        <ele>599.597656</ele>
        <time>2020-06-20T20:56:38.000Z</time>
      </trkpt>
      <trkpt lat="33.865065" lon="-115.644822">
        <ele>600.398438</ele>
        <time>2020-06-20T20:56:45.000Z</time>
      </trkpt>
      <trkpt lat="33.865067" lon="-115.644789">
        <ele>600.296875</ele>
        <time>2020-06-20T20:56:48.000Z</time>
      </trkpt>
      <trkpt lat="33.865068" lon="-115.644687">
        <ele>600.097656</ele>
        <time>2020-06-20T20:56:49.000Z</time>
      </trkpt>
      <trkpt lat="33.865074" lon="-115.644652">
        <ele>600.500000</ele>
        <time>2020-06-20T20:56:52.000Z</time>
      </trkpt>
      <trkpt lat="33.865188" lon="-115.644022">
        <ele>602.000000</ele>
        <time>2020-06-20T20:57:02.000Z</time>
      </trkpt>
      <trkpt lat="33.865287" lon="-115.643269">
        <ele>601.398438</ele>
        <time>2020-06-20T20:57:12.000Z</time>
      </trkpt>
      <trkpt lat="33.865383" lon="-115.642506">
        <ele>599.796875</ele>
        <time>2020-06-20T20:57:22.000Z</time>
      </trkpt>
      <trkpt lat="33.86548" lon="-115.641783">
        <ele>600.296875</ele>
        <time>2020-06-20T20:57:36.000Z</time>
      </trkpt>
      <trkpt lat="33.865578" lon="-115.640988">
        <ele>600.097656</ele>
        <time>2020-06-20T20:57:46.000Z</time>
      </trkpt>
      <trkpt lat="33.865623" lon="-115.640564">
        <ele>599.699219</ele>
        <time>2020-06-20T20:57:54.000Z</time>
      </trkpt>
      <trkpt lat="33.86563" lon="-115.640518">
        <ele>599.500000</ele>
        <time>2020-06-20T20:57:56.000Z</time>
      </trkpt>
      <trkpt lat="33.865675" lon="-115.640186">
        <ele>599.500000</ele>
        <time>2020-06-20T20:58:02.000Z</time>
      </trkpt>
      <trkpt lat="33.865761" lon="-115.639381">
        <ele>602.199219</ele>
        <time>2020-06-20T20:58:17.000Z</time>
      </trkpt>
      <trkpt lat="33.865836" lon="-115.638574">
        <ele>603.796875</ele>
        <time>2020-06-20T20:58:27.000Z</time>
      </trkpt>
      <trkpt lat="33.865879" lon="-115.638062">
        <ele>601.296875</ele>
        <time>2020-06-20T20:58:36.000Z</time>
      </trkpt>
      <trkpt lat="33.86588" lon="-115.638046">
        <ele>600.199219</ele>
        <time>2020-06-20T20:58:42.000Z</time>
      </trkpt>
      <trkpt lat="33.865886" lon="-115.637948">
        <ele>600.199219</ele>
        <time>2020-06-20T20:58:43.000Z</time>
      </trkpt>
      <trkpt lat="33.865882" lon="-115.637929">
        <ele>600.398438</ele>
        <time>2020-06-20T20:58:46.000Z</time>
      </trkpt>
      <trkpt lat="33.865887" lon="-115.637834">
        <ele>600.398438</ele>
        <time>2020-06-20T20:58:47.000Z</time>
      </trkpt>
      <trkpt lat="33.865897" lon="-115.637548">
        <ele>601.097656</ele>
        <time>2020-06-20T20:58:57.000Z</time>
      </trkpt>
      <trkpt lat="33.865904" lon="-115.637513">
        <ele>601.199219</ele>
        <time>2020-06-20T20:58:59.000Z</time>
      </trkpt>
      <trkpt lat="33.865936" lon="-115.637251">
        <ele>601.796875</ele>
        <time>2020-06-20T20:59:04.000Z</time>
      </trkpt>
      <trkpt lat="33.865994" lon="-115.636475">
        <ele>604.199219</ele>
        <time>2020-06-20T20:59:16.000Z</time>
      </trkpt>
      <trkpt lat="33.866033" lon="-115.636">
        <ele>604.699219</ele>
        <time>2020-06-20T20:59:25.000Z</time>
      </trkpt>
      <trkpt lat="33.866032" lon="-115.635999">
        <ele>604.097656</ele>
        <time>2020-06-20T20:59:40.000Z</time>
      </trkpt>
      <trkpt lat="33.866047" lon="-115.635848">
        <ele>604.000000</ele>
        <time>2020-06-20T20:59:41.000Z</time>
      </trkpt>
      <trkpt lat="33.866129" lon="-115.635051">
        <ele>604.500000</ele>
        <time>2020-06-20T20:59:55.000Z</time>
      </trkpt>
      <trkpt lat="33.866149" lon="-115.634754">
        <ele>604.398438</ele>
        <time>2020-06-20T21:00:06.000Z</time>
      </trkpt>
      <trkpt lat="33.866149" lon="-115.634713">
        <ele>604.597656</ele>
        <time>2020-06-20T21:00:08.000Z</time>
      </trkpt>
      <trkpt lat="33.86614" lon="-115.634623">
        <ele>604.898438</ele>
        <time>2020-06-20T21:00:09.000Z</time>
      </trkpt>
      <trkpt lat="33.866132" lon="-115.634579">
        <ele>605.398438</ele>
        <time>2020-06-20T21:00:11.000Z</time>
      </trkpt>
      <trkpt lat="33.866107" lon="-115.634506">
        <ele>605.796875</ele>
        <time>2020-06-20T21:00:12.000Z</time>
      </trkpt>
      <trkpt lat="33.866093" lon="-115.634474">
        <ele>606.398438</ele>
        <time>2020-06-20T21:00:15.000Z</time>
      </trkpt>
      <trkpt lat="33.866022" lon="-115.634321">
        <ele>606.796875</ele>
        <time>2020-06-20T21:00:18.000Z</time>
      </trkpt>
      <trkpt lat="33.865924" lon="-115.634106">
        <ele>608.097656</ele>
        <time>2020-06-20T21:00:24.000Z</time>
      </trkpt>
      <trkpt lat="33.865911" lon="-115.63407">
        <ele>608.699219</ele>
        <time>2020-06-20T21:00:26.000Z</time>
      </trkpt>
      <trkpt lat="33.865882" lon="-115.63401">
        <ele>609.000000</ele>
        <time>2020-06-20T21:00:28.000Z</time>
      </trkpt>
      <trkpt lat="33.865835" lon="-115.633882">
        <ele>609.199219</ele>
        <time>2020-06-20T21:00:31.000Z</time>
      </trkpt>
      <trkpt lat="33.865823" lon="-115.633847">
        <ele>610.097656</ele>
        <time>2020-06-20T21:00:33.000Z</time>
      </trkpt>
      <trkpt lat="33.865809" lon="-115.633767">
        <ele>610.699219</ele>
        <time>2020-06-20T21:00:34.000Z</time>
      </trkpt>
      <trkpt lat="33.865808" lon="-115.633724">
        <ele>611.199219</ele>
        <time>2020-06-20T21:00:36.000Z</time>
      </trkpt>
      <trkpt lat="33.865818" lon="-115.633633">
        <ele>611.398438</ele>
        <time>2020-06-20T21:00:37.000Z</time>
      </trkpt>
      <trkpt lat="33.865828" lon="-115.633588">
        <ele>611.699219</ele>
        <time>2020-06-20T21:00:39.000Z</time>
      </trkpt>
      <trkpt lat="33.865858" lon="-115.633494">
        <ele>611.597656</ele>
        <time>2020-06-20T21:00:40.000Z</time>
      </trkpt>
      <trkpt lat="33.866127" lon="-115.632755">
        <ele>613.597656</ele>
        <time>2020-06-20T21:00:53.000Z</time>
      </trkpt>
      <trkpt lat="33.866366" lon="-115.632046">
        <ele>616.097656</ele>
        <time>2020-06-20T21:01:03.000Z</time>
      </trkpt>
      <trkpt lat="33.866509" lon="-115.631578">
        <ele>616.000000</ele>
        <time>2020-06-20T21:01:09.000Z</time>
      </trkpt>
      <trkpt lat="33.866566" lon="-115.631326">
        <ele>616.296875</ele>
        <time>2020-06-20T21:01:12.000Z</time>
      </trkpt>
      <trkpt lat="33.866579" lon="-115.631244">
        <ele>616.296875</ele>
        <time>2020-06-20T21:01:13.000Z</time>
      </trkpt>
      <trkpt lat="33.866585" lon="-115.631165">
        <ele>616.296875</ele>
        <time>2020-06-20T21:01:14.000Z</time>
      </trkpt>
      <trkpt lat="33.866578" lon="-115.631086">
        <ele>616.398438</ele>
        <time>2020-06-20T21:01:15.000Z</time>
      </trkpt>
      <trkpt lat="33.866563" lon="-115.631011">
        <ele>616.199219</ele>
        <time>2020-06-20T21:01:16.000Z</time>
      </trkpt>
      <trkpt lat="33.86652" lon="-115.630864">
        <ele>615.597656</ele>
        <time>2020-06-20T21:01:18.000Z</time>
      </trkpt>
      <trkpt lat="33.866418" lon="-115.630481">
        <ele>614.199219</ele>
        <time>2020-06-20T21:01:23.000Z</time>
      </trkpt>
      <trkpt lat="33.866392" lon="-115.630318">
        <ele>614.097656</ele>
        <time>2020-06-20T21:01:25.000Z</time>
      </trkpt>
      <trkpt lat="33.86631" lon="-115.629576">
        <ele>614.500000</ele>
        <time>2020-06-20T21:01:34.000Z</time>
      </trkpt>
      <trkpt lat="33.866289" lon="-115.629427">
        <ele>614.898438</ele>
        <time>2020-06-20T21:01:36.000Z</time>
      </trkpt>
      <trkpt lat="33.866205" lon="-115.628669">
        <ele>617.000000</ele>
        <time>2020-06-20T21:01:45.000Z</time>
      </trkpt>
      <trkpt lat="33.866119" lon="-115.628166">
        <ele>616.199219</ele>
        <time>2020-06-20T21:01:54.000Z</time>
      </trkpt>
      <trkpt lat="33.866116" lon="-115.628152">
        <ele>616.097656</ele>
        <time>2020-06-20T21:01:58.000Z</time>
      </trkpt>
      <trkpt lat="33.86609" lon="-115.62802">
        <ele>616.199219</ele>
        <time>2020-06-20T21:02:00.000Z</time>
      </trkpt>
      <trkpt lat="33.866036" lon="-115.627704">
        <ele>616.898438</ele>
        <time>2020-06-20T21:02:09.000Z</time>
      </trkpt>
      <trkpt lat="33.865944" lon="-115.627435">
        <ele>617.398438</ele>
        <time>2020-06-20T21:02:15.000Z</time>
      </trkpt>
      <trkpt lat="33.865694" lon="-115.626819">
        <ele>618.699219</ele>
        <time>2020-06-20T21:02:28.000Z</time>
      </trkpt>
      <trkpt lat="33.865403" lon="-115.626159">
        <ele>620.296875</ele>
        <time>2020-06-20T21:02:39.000Z</time>
      </trkpt>
      <trkpt lat="33.865129" lon="-115.625482">
        <ele>623.699219</ele>
        <time>2020-06-20T21:02:50.000Z</time>
      </trkpt>
      <trkpt lat="33.864892" lon="-115.6248">
        <ele>625.199219</ele>
        <time>2020-06-20T21:03:00.000Z</time>
      </trkpt>
      <trkpt lat="33.864693" lon="-115.62416">
        <ele>624.398438</ele>
        <time>2020-06-20T21:03:09.000Z</time>
      </trkpt>
      <trkpt lat="33.864681" lon="-115.624103">
        <ele>624.398438</ele>
        <time>2020-06-20T21:03:10.000Z</time>
      </trkpt>
      <trkpt lat="33.864676" lon="-115.624048">
        <ele>624.796875</ele>
        <time>2020-06-20T21:03:12.000Z</time>
      </trkpt>
      <trkpt lat="33.864685" lon="-115.623946">
        <ele>625.296875</ele>
        <time>2020-06-20T21:03:13.000Z</time>
      </trkpt>
      <trkpt lat="33.864689" lon="-115.623904">
        <ele>624.898438</ele>
        <time>2020-06-20T21:03:15.000Z</time>
      </trkpt>
      <trkpt lat="33.864691" lon="-115.623826">
        <ele>625.199219</ele>
        <time>2020-06-20T21:03:17.000Z</time>
      </trkpt>
      <trkpt lat="33.864691" lon="-115.623765">
        <ele>625.398438</ele>
        <time>2020-06-20T21:03:19.000Z</time>
      </trkpt>
      <trkpt lat="33.864699" lon="-115.623684">
        <ele>625.597656</ele>
        <time>2020-06-20T21:03:20.000Z</time>
      </trkpt>
      <trkpt lat="33.864761" lon="-115.62293">
        <ele>629.199219</ele>
        <time>2020-06-20T21:03:36.000Z</time>
      </trkpt>
      <trkpt lat="33.864768" lon="-115.62268">
        <ele>630.296875</ele>
        <time>2020-06-20T21:03:41.000Z</time>
      </trkpt>
      <trkpt lat="33.864788" lon="-115.622531">
        <ele>630.500000</ele>
        <time>2020-06-20T21:03:44.000Z</time>
      </trkpt>
      <trkpt lat="33.864803" lon="-115.622482">
        <ele>630.898438</ele>
        <time>2020-06-20T21:03:46.000Z</time>
      </trkpt>
      <trkpt lat="33.864841" lon="-115.622385">
        <ele>631.199219</ele>
        <time>2020-06-20T21:03:47.000Z</time>
      </trkpt>
      <trkpt lat="33.864984" lon="-115.622058">
        <ele>630.898438</ele>
        <time>2020-06-20T21:03:53.000Z</time>
      </trkpt>
      <trkpt lat="33.865003" lon="-115.621991">
        <ele>631.000000</ele>
        <time>2020-06-20T21:03:54.000Z</time>
      </trkpt>
      <trkpt lat="33.865016" lon="-115.621921">
        <ele>631.199219</ele>
        <time>2020-06-20T21:03:55.000Z</time>
      </trkpt>
      <trkpt lat="33.865024" lon="-115.621851">
        <ele>631.597656</ele>
        <time>2020-06-20T21:03:56.000Z</time>
      </trkpt>
      <trkpt lat="33.865074" lon="-115.621144">
        <ele>634.597656</ele>
        <time>2020-06-20T21:04:08.000Z</time>
      </trkpt>
      <trkpt lat="33.865079" lon="-115.620342">
        <ele>637.000000</ele>
        <time>2020-06-20T21:04:20.000Z</time>
      </trkpt>
      <trkpt lat="33.865071" lon="-115.620268">
        <ele>637.199219</ele>
        <time>2020-06-20T21:04:21.000Z</time>
      </trkpt>
      <trkpt lat="33.864976" lon="-115.619525">
        <ele>640.097656</ele>
        <time>2020-06-20T21:04:31.000Z</time>
      </trkpt>
      <trkpt lat="33.864854" lon="-115.618779">
        <ele>641.500000</ele>
        <time>2020-06-20T21:04:42.000Z</time>
      </trkpt>
      <trkpt lat="33.864728" lon="-115.618165">
        <ele>642.898438</ele>
        <time>2020-06-20T21:04:55.000Z</time>
      </trkpt>
      <trkpt lat="33.864716" lon="-115.618127">
        <ele>642.597656</ele>
        <time>2020-06-20T21:04:57.000Z</time>
      </trkpt>
      <trkpt lat="33.864679" lon="-115.618045">
        <ele>642.597656</ele>
        <time>2020-06-20T21:04:58.000Z</time>
      </trkpt>
      <trkpt lat="33.864382" lon="-115.617344">
        <ele>643.597656</ele>
        <time>2020-06-20T21:05:12.000Z</time>
      </trkpt>
      <trkpt lat="33.864075" lon="-115.616623">
        <ele>644.898438</ele>
        <time>2020-06-20T21:05:27.000Z</time>
      </trkpt>
      <trkpt lat="33.864068" lon="-115.616606">
        <ele>647.597656</ele>
        <time>2020-06-20T21:07:25.000Z</time>
      </trkpt>
      <trkpt lat="33.864032" lon="-115.616488">
        <ele>647.699219</ele>
        <time>2020-06-20T21:07:26.000Z</time>
      </trkpt>
      <trkpt lat="33.864016" lon="-115.61645">
        <ele>648.000000</ele>
        <time>2020-06-20T21:07:28.000Z</time>
      </trkpt>
      <trkpt lat="33.863724" lon="-115.615726">
        <ele>650.000000</ele>
        <time>2020-06-20T21:07:42.000Z</time>
      </trkpt>
      <trkpt lat="33.863429" lon="-115.615038">
        <ele>651.296875</ele>
        <time>2020-06-20T21:07:53.000Z</time>
      </trkpt>
      <trkpt lat="33.863091" lon="-115.614374">
        <ele>653.199219</ele>
        <time>2020-06-20T21:08:04.000Z</time>
      </trkpt>
      <trkpt lat="33.863006" lon="-115.614198">
        <ele>653.097656</ele>
        <time>2020-06-20T21:08:07.000Z</time>
      </trkpt>
      <trkpt lat="33.862956" lon="-115.614076">
        <ele>652.000000</ele>
        <time>2020-06-20T21:08:09.000Z</time>
      </trkpt>
      <trkpt lat="33.862761" lon="-115.613439">
        <ele>649.097656</ele>
        <time>2020-06-20T21:08:19.000Z</time>
      </trkpt>
      <trkpt lat="33.86263" lon="-115.61303">
        <ele>649.199219</ele>
        <time>2020-06-20T21:08:26.000Z</time>
      </trkpt>
      <trkpt lat="33.862617" lon="-115.612982">
        <ele>648.296875</ele>
        <time>2020-06-20T21:08:28.000Z</time>
      </trkpt>
      <trkpt lat="33.862603" lon="-115.612905">
        <ele>647.796875</ele>
        <time>2020-06-20T21:08:30.000Z</time>
      </trkpt>
      <trkpt lat="33.862601" lon="-115.612862">
        <ele>647.000000</ele>
        <time>2020-06-20T21:08:34.000Z</time>
      </trkpt>
      <trkpt lat="33.862609" lon="-115.612783">
        <ele>646.500000</ele>
        <time>2020-06-20T21:08:36.000Z</time>
      </trkpt>
      <trkpt lat="33.86262" lon="-115.612735">
        <ele>646.097656</ele>
        <time>2020-06-20T21:08:38.000Z</time>
      </trkpt>
      <trkpt lat="33.862635" lon="-115.612672">
        <ele>645.398438</ele>
        <time>2020-06-20T21:08:40.000Z</time>
      </trkpt>
      <trkpt lat="33.862664" lon="-115.612604">
        <ele>645.296875</ele>
        <time>2020-06-20T21:08:41.000Z</time>
      </trkpt>
      <trkpt lat="33.862683" lon="-115.612572">
        <ele>645.097656</ele>
        <time>2020-06-20T21:08:43.000Z</time>
      </trkpt>
      <trkpt lat="33.862756" lon="-115.612457">
        <ele>645.097656</ele>
        <time>2020-06-20T21:08:46.000Z</time>
      </trkpt>
      <trkpt lat="33.862769" lon="-115.61243">
        <ele>645.898438</ele>
        <time>2020-06-20T21:08:49.000Z</time>
      </trkpt>
      <trkpt lat="33.862833" lon="-115.612291">
        <ele>647.097656</ele>
        <time>2020-06-20T21:08:53.000Z</time>
      </trkpt>
      <trkpt lat="33.862841" lon="-115.612268">
        <ele>646.000000</ele>
        <time>2020-06-20T21:08:56.000Z</time>
      </trkpt>
      <trkpt lat="33.862851" lon="-115.61218">
        <ele>646.097656</ele>
        <time>2020-06-20T21:08:57.000Z</time>
      </trkpt>
      <trkpt lat="33.86287" lon="-115.612053">
        <ele>646.296875</ele>
        <time>2020-06-20T21:09:02.000Z</time>
      </trkpt>
      <trkpt lat="33.862875" lon="-115.61203">
        <ele>646.597656</ele>
        <time>2020-06-20T21:09:07.000Z</time>
      </trkpt>
      <trkpt lat="33.86291" lon="-115.611892">
        <ele>646.796875</ele>
        <time>2020-06-20T21:09:10.000Z</time>
      </trkpt>
      <trkpt lat="33.862931" lon="-115.611708">
        <ele>645.699219</ele>
        <time>2020-06-20T21:09:16.000Z</time>
      </trkpt>
      <trkpt lat="33.862943" lon="-115.611519">
        <ele>644.796875</ele>
        <time>2020-06-20T21:09:22.000Z</time>
      </trkpt>
      <trkpt lat="33.862943" lon="-115.611495">
        <ele>645.000000</ele>
        <time>2020-06-20T21:09:26.000Z</time>
      </trkpt>
      <trkpt lat="33.862955" lon="-115.611412">
        <ele>645.000000</ele>
        <time>2020-06-20T21:09:28.000Z</time>
      </trkpt>
      <trkpt lat="33.862998" lon="-115.611103">
        <ele>645.398438</ele>
        <time>2020-06-20T21:09:39.000Z</time>
      </trkpt>
      <trkpt lat="33.863027" lon="-115.610998">
        <ele>645.796875</ele>
        <time>2020-06-20T21:09:42.000Z</time>
      </trkpt>
      <trkpt lat="33.863033" lon="-115.610966">
        <ele>646.000000</ele>
        <time>2020-06-20T21:09:45.000Z</time>
      </trkpt>
      <trkpt lat="33.863057" lon="-115.610817">
        <ele>646.296875</ele>
        <time>2020-06-20T21:09:49.000Z</time>
      </trkpt>
      <trkpt lat="33.863063" lon="-115.610793">
        <ele>646.000000</ele>
        <time>2020-06-20T21:09:53.000Z</time>
      </trkpt>
      <trkpt lat="33.863089" lon="-115.61067">
        <ele>645.898438</ele>
        <time>2020-06-20T21:09:56.000Z</time>
      </trkpt>
      <trkpt lat="33.863091" lon="-115.610647">
        <ele>647.000000</ele>
        <time>2020-06-20T21:10:01.000Z</time>
      </trkpt>
      <trkpt lat="33.863093" lon="-115.610547">
        <ele>647.097656</ele>
        <time>2020-06-20T21:10:02.000Z</time>
      </trkpt>
      <trkpt lat="33.863089" lon="-115.61053">
        <ele>647.597656</ele>
        <time>2020-06-20T21:10:07.000Z</time>
      </trkpt>
      <trkpt lat="33.863039" lon="-115.610291">
        <ele>647.597656</ele>
        <time>2020-06-20T21:10:14.000Z</time>
      </trkpt>
      <trkpt lat="33.863031" lon="-115.610271">
        <ele>648.000000</ele>
        <time>2020-06-20T21:10:20.000Z</time>
      </trkpt>
      <trkpt lat="33.862989" lon="-115.610186">
        <ele>647.597656</ele>
        <time>2020-06-20T21:10:22.000Z</time>
      </trkpt>
      <trkpt lat="33.862827" lon="-115.609873">
        <ele>647.000000</ele>
        <time>2020-06-20T21:10:45.000Z</time>
      </trkpt>
      <trkpt lat="33.862819" lon="-115.60985">
        <ele>647.398438</ele>
        <time>2020-06-20T21:10:49.000Z</time>
      </trkpt>
      <trkpt lat="33.862781" lon="-115.609754">
        <ele>647.500000</ele>
        <time>2020-06-20T21:10:50.000Z</time>
      </trkpt>
      <trkpt lat="33.862767" lon="-115.609732">
        <ele>647.796875</ele>
        <time>2020-06-20T21:10:53.000Z</time>
      </trkpt>
      <trkpt lat="33.862716" lon="-115.609666">
        <ele>647.796875</ele>
        <time>2020-06-20T21:10:54.000Z</time>
      </trkpt>
      <trkpt lat="33.862696" lon="-115.609642">
        <ele>648.199219</ele>
        <time>2020-06-20T21:10:57.000Z</time>
      </trkpt>
      <trkpt lat="33.862642" lon="-115.609555">
        <ele>648.199219</ele>
        <time>2020-06-20T21:10:58.000Z</time>
      </trkpt>
      <trkpt lat="33.862587" lon="-115.609451">
        <ele>648.597656</ele>
        <time>2020-06-20T21:11:01.000Z</time>
      </trkpt>
      <trkpt lat="33.862572" lon="-115.609413">
        <ele>648.796875</ele>
        <time>2020-06-20T21:11:03.000Z</time>
      </trkpt>
      <trkpt lat="33.862538" lon="-115.609298">
        <ele>649.000000</ele>
        <time>2020-06-20T21:11:05.000Z</time>
      </trkpt>
      <trkpt lat="33.862514" lon="-115.609158">
        <ele>650.796875</ele>
        <time>2020-06-20T21:11:09.000Z</time>
      </trkpt>
      <trkpt lat="33.862503" lon="-115.609123">
        <ele>651.898438</ele>
        <time>2020-06-20T21:11:11.000Z</time>
      </trkpt>
      <trkpt lat="33.862474" lon="-115.609053">
        <ele>652.199219</ele>
        <time>2020-06-20T21:11:12.000Z</time>
      </trkpt>
      <trkpt lat="33.862422" lon="-115.608932">
        <ele>652.699219</ele>
        <time>2020-06-20T21:11:15.000Z</time>
      </trkpt>
      <trkpt lat="33.862406" lon="-115.608888">
        <ele>652.898438</ele>
        <time>2020-06-20T21:11:17.000Z</time>
      </trkpt>
      <trkpt lat="33.862348" lon="-115.608691">
        <ele>652.296875</ele>
        <time>2020-06-20T21:11:20.000Z</time>
      </trkpt>
      <trkpt lat="33.862268" lon="-115.608393">
        <ele>652.500000</ele>
        <time>2020-06-20T21:11:26.000Z</time>
      </trkpt>
      <trkpt lat="33.862206" lon="-115.608012">
        <ele>653.199219</ele>
        <time>2020-06-20T21:11:34.000Z</time>
      </trkpt>
      <trkpt lat="33.862201" lon="-115.607975">
        <ele>653.500000</ele>
        <time>2020-06-20T21:11:37.000Z</time>
      </trkpt>
      <trkpt lat="33.8622" lon="-115.607881">
        <ele>653.500000</ele>
        <time>2020-06-20T21:11:38.000Z</time>
      </trkpt>
      <trkpt lat="33.862201" lon="-115.607849">
        <ele>653.398438</ele>
        <time>2020-06-20T21:11:41.000Z</time>
      </trkpt>
      <trkpt lat="33.862216" lon="-115.607714">
        <ele>653.500000</ele>
        <time>2020-06-20T21:11:43.000Z</time>
      </trkpt>
      <trkpt lat="33.86222" lon="-115.607693">
        <ele>653.898438</ele>
        <time>2020-06-20T21:11:48.000Z</time>
      </trkpt>
      <trkpt lat="33.862254" lon="-115.607583">
        <ele>653.898438</ele>
        <time>2020-06-20T21:11:49.000Z</time>
      </trkpt>
      <trkpt lat="33.862274" lon="-115.607553">
        <ele>654.500000</ele>
        <time>2020-06-20T21:11:51.000Z</time>
      </trkpt>
      <trkpt lat="33.862339" lon="-115.607488">
        <ele>654.898438</ele>
        <time>2020-06-20T21:11:52.000Z</time>
      </trkpt>
      <trkpt lat="33.862377" lon="-115.607456">
        <ele>655.199219</ele>
        <time>2020-06-20T21:11:53.000Z</time>
      </trkpt>
      <trkpt lat="33.862688" lon="-115.607189">
        <ele>657.898438</ele>
        <time>2020-06-20T21:12:01.000Z</time>
      </trkpt>
      <trkpt lat="33.862721" lon="-115.607148">
        <ele>657.898438</ele>
        <time>2020-06-20T21:12:02.000Z</time>
      </trkpt>
      <trkpt lat="33.862747" lon="-115.607104">
        <ele>658.296875</ele>
        <time>2020-06-20T21:12:04.000Z</time>
      </trkpt>
      <trkpt lat="33.862779" lon="-115.60701">
        <ele>657.796875</ele>
        <time>2020-06-20T21:12:05.000Z</time>
      </trkpt>
      <trkpt lat="33.862778" lon="-115.606959">
        <ele>657.699219</ele>
        <time>2020-06-20T21:12:07.000Z</time>
      </trkpt>
      <trkpt lat="33.86275" lon="-115.60687">
        <ele>657.597656</ele>
        <time>2020-06-20T21:12:08.000Z</time>
      </trkpt>
      <trkpt lat="33.862729" lon="-115.606836">
        <ele>657.199219</ele>
        <time>2020-06-20T21:12:10.000Z</time>
      </trkpt>
      <trkpt lat="33.862684" lon="-115.60678">
        <ele>657.000000</ele>
        <time>2020-06-20T21:12:11.000Z</time>
      </trkpt>
      <trkpt lat="33.862659" lon="-115.606754">
        <ele>655.898438</ele>
        <time>2020-06-20T21:12:13.000Z</time>
      </trkpt>
      <trkpt lat="33.862597" lon="-115.606702">
        <ele>655.699219</ele>
        <time>2020-06-20T21:12:14.000Z</time>
      </trkpt>
      <trkpt lat="33.862562" lon="-115.606677">
        <ele>654.500000</ele>
        <time>2020-06-20T21:12:16.000Z</time>
      </trkpt>
      <trkpt lat="33.862504" lon="-115.606606">
        <ele>653.898438</ele>
        <time>2020-06-20T21:12:17.000Z</time>
      </trkpt>
      <trkpt lat="33.862481" lon="-115.606569">
        <ele>653.296875</ele>
        <time>2020-06-20T21:12:19.000Z</time>
      </trkpt>
      <trkpt lat="33.862457" lon="-115.606507">
        <ele>652.097656</ele>
        <time>2020-06-20T21:12:21.000Z</time>
      </trkpt>
      <trkpt lat="33.862449" lon="-115.60646">
        <ele>651.699219</ele>
        <time>2020-06-20T21:12:25.000Z</time>
      </trkpt>
      <trkpt lat="33.862441" lon="-115.606377">
        <ele>651.796875</ele>
        <time>2020-06-20T21:12:27.000Z</time>
      </trkpt>
      <trkpt lat="33.862441" lon="-115.606329">
        <ele>652.500000</ele>
        <time>2020-06-20T21:12:29.000Z</time>
      </trkpt>
      <trkpt lat="33.86245" lon="-115.606264">
        <ele>653.796875</ele>
        <time>2020-06-20T21:12:31.000Z</time>
      </trkpt>
      <trkpt lat="33.862459" lon="-115.606189">
        <ele>654.199219</ele>
        <time>2020-06-20T21:12:32.000Z</time>
      </trkpt>
      <trkpt lat="33.86246" lon="-115.606155">
        <ele>654.796875</ele>
        <time>2020-06-20T21:12:35.000Z</time>
      </trkpt>
      <trkpt lat="33.862471" lon="-115.606058">
        <ele>654.199219</ele>
        <time>2020-06-20T21:12:36.000Z</time>
      </trkpt>
      <trkpt lat="33.862479" lon="-115.606022">
        <ele>654.898438</ele>
        <time>2020-06-20T21:12:38.000Z</time>
      </trkpt>
      <trkpt lat="33.862502" lon="-115.605953">
        <ele>655.000000</ele>
        <time>2020-06-20T21:12:39.000Z</time>
      </trkpt>
      <trkpt lat="33.862514" lon="-115.605919">
        <ele>655.597656</ele>
        <time>2020-06-20T21:12:41.000Z</time>
      </trkpt>
      <trkpt lat="33.862532" lon="-115.605845">
        <ele>656.000000</ele>
        <time>2020-06-20T21:12:42.000Z</time>
      </trkpt>
      <trkpt lat="33.862537" lon="-115.605807">
        <ele>655.699219</ele>
        <time>2020-06-20T21:12:45.000Z</time>
      </trkpt>
      <trkpt lat="33.862547" lon="-115.605729">
        <ele>653.699219</ele>
        <time>2020-06-20T21:14:03.000Z</time>
      </trkpt>
      <trkpt lat="33.86256" lon="-115.60558">
        <ele>655.199219</ele>
        <time>2020-06-20T21:14:07.000Z</time>
      </trkpt>
      <trkpt lat="33.862593" lon="-115.605163">
        <ele>661.398438</ele>
        <time>2020-06-20T21:14:23.000Z</time>
      </trkpt>
      <trkpt lat="33.862625" lon="-115.604962">
        <ele>664.597656</ele>
        <time>2020-06-20T21:14:30.000Z</time>
      </trkpt>
      <trkpt lat="33.862624" lon="-115.604928">
        <ele>665.699219</ele>
        <time>2020-06-20T21:14:33.000Z</time>
      </trkpt>
      <trkpt lat="33.862617" lon="-115.604817">
        <ele>665.597656</ele>
        <time>2020-06-20T21:14:34.000Z</time>
      </trkpt>
      <trkpt lat="33.862598" lon="-115.604698">
        <ele>666.199219</ele>
        <time>2020-06-20T21:14:37.000Z</time>
      </trkpt>
      <trkpt lat="33.862501" lon="-115.603894">
        <ele>666.796875</ele>
        <time>2020-06-20T21:14:53.000Z</time>
      </trkpt>
      <trkpt lat="33.862477" lon="-115.603621">
        <ele>666.796875</ele>
        <time>2020-06-20T21:14:57.000Z</time>
      </trkpt>
      <trkpt lat="33.862476" lon="-115.603568">
        <ele>666.597656</ele>
        <time>2020-06-20T21:14:59.000Z</time>
      </trkpt>
      <trkpt lat="33.862485" lon="-115.603478">
        <ele>666.500000</ele>
        <time>2020-06-20T21:15:00.000Z</time>
      </trkpt>
      <trkpt lat="33.862496" lon="-115.603427">
        <ele>666.597656</ele>
        <time>2020-06-20T21:15:01.000Z</time>
      </trkpt>
      <trkpt lat="33.862668" lon="-115.602675">
        <ele>661.500000</ele>
        <time>2020-06-20T21:15:13.000Z</time>
      </trkpt>
      <trkpt lat="33.862704" lon="-115.602416">
        <ele>662.699219</ele>
        <time>2020-06-20T21:15:18.000Z</time>
      </trkpt>
      <trkpt lat="33.862704" lon="-115.602347">
        <ele>663.199219</ele>
        <time>2020-06-20T21:15:19.000Z</time>
      </trkpt>
      <trkpt lat="33.862699" lon="-115.602276">
        <ele>663.500000</ele>
        <time>2020-06-20T21:15:20.000Z</time>
      </trkpt>
      <trkpt lat="33.862687" lon="-115.602204">
        <ele>663.398438</ele>
        <time>2020-06-20T21:15:21.000Z</time>
      </trkpt>
      <trkpt lat="33.86267" lon="-115.602127">
        <ele>663.199219</ele>
        <time>2020-06-20T21:15:22.000Z</time>
      </trkpt>
      <trkpt lat="33.86253" lon="-115.601591">
        <ele>663.398438</ele>
        <time>2020-06-20T21:15:29.000Z</time>
      </trkpt>
      <trkpt lat="33.862524" lon="-115.601528">
        <ele>663.500000</ele>
        <time>2020-06-20T21:15:30.000Z</time>
      </trkpt>
      <trkpt lat="33.862526" lon="-115.601472">
        <ele>663.398438</ele>
        <time>2020-06-20T21:15:31.000Z</time>
      </trkpt>
      <trkpt lat="33.862532" lon="-115.601417">
        <ele>663.199219</ele>
        <time>2020-06-20T21:15:33.000Z</time>
      </trkpt>
      <trkpt lat="33.862561" lon="-115.601317">
        <ele>663.296875</ele>
        <time>2020-06-20T21:15:34.000Z</time>
      </trkpt>
      <trkpt lat="33.8626" lon="-115.601218">
        <ele>663.296875</ele>
        <time>2020-06-20T21:15:36.000Z</time>
      </trkpt>
      <trkpt lat="33.862648" lon="-115.601125">
        <ele>663.597656</ele>
        <time>2020-06-20T21:15:38.000Z</time>
      </trkpt>
      <trkpt lat="33.862675" lon="-115.601083">
        <ele>664.296875</ele>
        <time>2020-06-20T21:15:40.000Z</time>
      </trkpt>
      <trkpt lat="33.863006" lon="-115.60054">
        <ele>665.500000</ele>
        <time>2020-06-20T21:15:53.000Z</time>
      </trkpt>
      <trkpt lat="33.863022" lon="-115.600521">
        <ele>665.898438</ele>
        <time>2020-06-20T21:15:56.000Z</time>
      </trkpt>
      <trkpt lat="33.863082" lon="-115.600476">
        <ele>666.296875</ele>
        <time>2020-06-20T21:15:57.000Z</time>
      </trkpt>
      <trkpt lat="33.863279" lon="-115.600338">
        <ele>668.398438</ele>
        <time>2020-06-20T21:16:03.000Z</time>
      </trkpt>
      <trkpt lat="33.863848" lon="-115.59998">
        <ele>669.898438</ele>
        <time>2020-06-20T21:16:17.000Z</time>
      </trkpt>
      <trkpt lat="33.864005" lon="-115.599915">
        <ele>671.796875</ele>
        <time>2020-06-20T21:16:21.000Z</time>
      </trkpt>
      <trkpt lat="33.864192" lon="-115.599854">
        <ele>673.898438</ele>
        <time>2020-06-20T21:16:27.000Z</time>
      </trkpt>
      <trkpt lat="33.864209" lon="-115.599851">
        <ele>674.000000</ele>
        <time>2020-06-20T21:16:32.000Z</time>
      </trkpt>
      <trkpt lat="33.864306" lon="-115.599852">
        <ele>674.097656</ele>
        <time>2020-06-20T21:16:33.000Z</time>
      </trkpt>
      <trkpt lat="33.864337" lon="-115.599866">
        <ele>674.699219</ele>
        <time>2020-06-20T21:16:35.000Z</time>
      </trkpt>
      <trkpt lat="33.864705" lon="-115.600017">
        <ele>676.296875</ele>
        <time>2020-06-20T21:16:43.000Z</time>
      </trkpt>
      <trkpt lat="33.864749" lon="-115.600028">
        <ele>676.097656</ele>
        <time>2020-06-20T21:16:45.000Z</time>
      </trkpt>
      <trkpt lat="33.864836" lon="-115.600039">
        <ele>676.000000</ele>
        <time>2020-06-20T21:16:46.000Z</time>
      </trkpt>
      <trkpt lat="33.864877" lon="-115.60004">
        <ele>676.199219</ele>
        <time>2020-06-20T21:16:48.000Z</time>
      </trkpt>
      <trkpt lat="33.864957" lon="-115.600031">
        <ele>676.500000</ele>
        <time>2020-06-20T21:16:49.000Z</time>
      </trkpt>
      <trkpt lat="33.864996" lon="-115.60002">
        <ele>676.296875</ele>
        <time>2020-06-20T21:16:51.000Z</time>
      </trkpt>
      <trkpt lat="33.865075" lon="-115.599979">
        <ele>676.000000</ele>
        <time>2020-06-20T21:16:52.000Z</time>
      </trkpt>
      <trkpt lat="33.865117" lon="-115.599955">
        <ele>676.199219</ele>
        <time>2020-06-20T21:16:53.000Z</time>
      </trkpt>
      <trkpt lat="33.865158" lon="-115.599925">
        <ele>675.796875</ele>
        <time>2020-06-20T21:16:54.000Z</time>
      </trkpt>
      <trkpt lat="33.865352" lon="-115.599809">
        <ele>673.796875</ele>
        <time>2020-06-20T21:16:59.000Z</time>
      </trkpt>
      <trkpt lat="33.865505" lon="-115.599728">
        <ele>673.097656</ele>
        <time>2020-06-20T21:17:02.000Z</time>
      </trkpt>
      <trkpt lat="33.865565" lon="-115.599703">
        <ele>672.699219</ele>
        <time>2020-06-20T21:17:03.000Z</time>
      </trkpt>
      <trkpt lat="33.865625" lon="-115.599688">
        <ele>671.796875</ele>
        <time>2020-06-20T21:17:04.000Z</time>
      </trkpt>
      <trkpt lat="33.865684" lon="-115.599682">
        <ele>670.898438</ele>
        <time>2020-06-20T21:17:05.000Z</time>
      </trkpt>
      <trkpt lat="33.866249" lon="-115.599654">
        <ele>669.699219</ele>
        <time>2020-06-20T21:17:16.000Z</time>
      </trkpt>
      <trkpt lat="33.866357" lon="-115.599666">
        <ele>670.097656</ele>
        <time>2020-06-20T21:17:18.000Z</time>
      </trkpt>
      <trkpt lat="33.866413" lon="-115.599681">
        <ele>670.097656</ele>
        <time>2020-06-20T21:17:19.000Z</time>
      </trkpt>
      <trkpt lat="33.866467" lon="-115.5997">
        <ele>669.898438</ele>
        <time>2020-06-20T21:17:20.000Z</time>
      </trkpt>
      <trkpt lat="33.86666" lon="-115.599787">
        <ele>670.500000</ele>
        <time>2020-06-20T21:17:24.000Z</time>
      </trkpt>
      <trkpt lat="33.866702" lon="-115.599796">
        <ele>671.000000</ele>
        <time>2020-06-20T21:17:26.000Z</time>
      </trkpt>
      <trkpt lat="33.866775" lon="-115.599768">
        <ele>670.296875</ele>
        <time>2020-06-20T21:17:27.000Z</time>
      </trkpt>
      <trkpt lat="33.866799" lon="-115.599736">
        <ele>669.597656</ele>
        <time>2020-06-20T21:17:29.000Z</time>
      </trkpt>
      <trkpt lat="33.866825" lon="-115.599661">
        <ele>669.097656</ele>
        <time>2020-06-20T21:17:30.000Z</time>
      </trkpt>
      <trkpt lat="33.866827" lon="-115.599622">
        <ele>669.000000</ele>
        <time>2020-06-20T21:17:32.000Z</time>
      </trkpt>
      <trkpt lat="33.866822" lon="-115.599551">
        <ele>669.097656</ele>
        <time>2020-06-20T21:17:34.000Z</time>
      </trkpt>
      <trkpt lat="33.866812" lon="-115.59949">
        <ele>669.199219</ele>
        <time>2020-06-20T21:17:36.000Z</time>
      </trkpt>
      <trkpt lat="33.866792" lon="-115.599379">
        <ele>669.296875</ele>
        <time>2020-06-20T21:17:39.000Z</time>
      </trkpt>
      <trkpt lat="33.866783" lon="-115.599354">
        <ele>667.796875</ele>
        <time>2020-06-20T21:17:49.000Z</time>
      </trkpt>
      <trkpt lat="33.866768" lon="-115.59927">
        <ele>668.199219</ele>
        <time>2020-06-20T21:17:51.000Z</time>
      </trkpt>
      <trkpt lat="33.866725" lon="-115.598988">
        <ele>669.796875</ele>
        <time>2020-06-20T21:18:02.000Z</time>
      </trkpt>
      <trkpt lat="33.866699" lon="-115.59878">
        <ele>670.796875</ele>
        <time>2020-06-20T21:18:09.000Z</time>
      </trkpt>
      <trkpt lat="33.866679" lon="-115.598652">
        <ele>672.500000</ele>
        <time>2020-06-20T21:18:13.000Z</time>
      </trkpt>
      <trkpt lat="33.866677" lon="-115.598621">
        <ele>674.097656</ele>
        <time>2020-06-20T21:18:16.000Z</time>
      </trkpt>
      <trkpt lat="33.866671" lon="-115.598537">
        <ele>674.699219</ele>
        <time>2020-06-20T21:18:17.000Z</time>
      </trkpt>
      <trkpt lat="33.866667" lon="-115.598509">
        <ele>676.296875</ele>
        <time>2020-06-20T21:18:20.000Z</time>
      </trkpt>
      <trkpt lat="33.866643" lon="-115.598421">
        <ele>676.898438</ele>
        <time>2020-06-20T21:18:21.000Z</time>
      </trkpt>
      <trkpt lat="33.866637" lon="-115.598392">
        <ele>679.097656</ele>
        <time>2020-06-20T21:18:24.000Z</time>
      </trkpt>
      <trkpt lat="33.866626" lon="-115.598309">
        <ele>679.398438</ele>
        <time>2020-06-20T21:18:25.000Z</time>
      </trkpt>
      <trkpt lat="33.86661" lon="-115.598128">
        <ele>682.597656</ele>
        <time>2020-06-20T21:18:31.000Z</time>
      </trkpt>
      <trkpt lat="33.866611" lon="-115.598096">
        <ele>683.898438</ele>
        <time>2020-06-20T21:18:34.000Z</time>
      </trkpt>
      <trkpt lat="33.866622" lon="-115.597998">
        <ele>684.597656</ele>
        <time>2020-06-20T21:18:35.000Z</time>
      </trkpt>
      <trkpt lat="33.866631" lon="-115.597965">
        <ele>685.398438</ele>
        <time>2020-06-20T21:18:38.000Z</time>
      </trkpt>
      <trkpt lat="33.866666" lon="-115.597863">
        <ele>685.699219</ele>
        <time>2020-06-20T21:18:39.000Z</time>
      </trkpt>
      <trkpt lat="33.866806" lon="-115.597449">
        <ele>685.398438</ele>
        <time>2020-06-20T21:18:49.000Z</time>
      </trkpt>
      <trkpt lat="33.866886" lon="-115.597098">
        <ele>685.296875</ele>
        <time>2020-06-20T21:18:56.000Z</time>
      </trkpt>
      <trkpt lat="33.866924" lon="-115.596858">
        <ele>686.097656</ele>
        <time>2020-06-20T21:19:01.000Z</time>
      </trkpt>
      <trkpt lat="33.866928" lon="-115.59681">
        <ele>686.199219</ele>
        <time>2020-06-20T21:19:03.000Z</time>
      </trkpt>
      <trkpt lat="33.866934" lon="-115.596623">
        <ele>687.898438</ele>
        <time>2020-06-20T21:19:06.000Z</time>
      </trkpt>
      <trkpt lat="33.866933" lon="-115.596582">
        <ele>687.597656</ele>
        <time>2020-06-20T21:19:08.000Z</time>
      </trkpt>
      <trkpt lat="33.866915" lon="-115.596501">
        <ele>687.000000</ele>
        <time>2020-06-20T21:19:09.000Z</time>
      </trkpt>
      <trkpt lat="33.8669" lon="-115.596463">
        <ele>685.699219</ele>
        <time>2020-06-20T21:19:11.000Z</time>
      </trkpt>
      <trkpt lat="33.866865" lon="-115.596387">
        <ele>685.097656</ele>
        <time>2020-06-20T21:19:12.000Z</time>
      </trkpt>
      <trkpt lat="33.866745" lon="-115.596157">
        <ele>684.296875</ele>
        <time>2020-06-20T21:19:19.000Z</time>
      </trkpt>
      <trkpt lat="33.866746" lon="-115.596155">
        <ele>687.898438</ele>
        <time>2020-06-20T21:19:46.000Z</time>
      </trkpt>
      <trkpt lat="33.866711" lon="-115.596036">
        <ele>687.898438</ele>
        <time>2020-06-20T21:19:47.000Z</time>
      </trkpt>
      <trkpt lat="33.866712" lon="-115.596013">
        <ele>686.898438</ele>
        <time>2020-06-20T21:19:51.000Z</time>
      </trkpt>
      <trkpt lat="33.866696" lon="-115.595917">
        <ele>686.898438</ele>
        <time>2020-06-20T21:19:52.000Z</time>
      </trkpt>
      <trkpt lat="33.866696" lon="-115.595901">
        <ele>684.097656</ele>
        <time>2020-06-20T21:19:58.000Z</time>
      </trkpt>
      <trkpt lat="33.866689" lon="-115.595791">
        <ele>683.097656</ele>
        <time>2020-06-20T21:20:00.000Z</time>
      </trkpt>
      <trkpt lat="33.866686" lon="-115.595776">
        <ele>680.000000</ele>
        <time>2020-06-20T21:20:05.000Z</time>
      </trkpt>
      <trkpt lat="33.866686" lon="-115.59566">
        <ele>679.398438</ele>
        <time>2020-06-20T21:20:06.000Z</time>
      </trkpt>
      <trkpt lat="33.866688" lon="-115.595198">
        <ele>674.597656</ele>
        <time>2020-06-20T21:20:20.000Z</time>
      </trkpt>
      <trkpt lat="33.866672" lon="-115.595087">
        <ele>673.699219</ele>
        <time>2020-06-20T21:20:26.000Z</time>
      </trkpt>
      <trkpt lat="33.866673" lon="-115.595087">
        <ele>672.699219</ele>
        <time>2020-06-20T21:20:40.000Z</time>
      </trkpt>
      <trkpt lat="33.866701" lon="-115.594982">
        <ele>672.500000</ele>
        <time>2020-06-20T21:20:41.000Z</time>
      </trkpt>
      <trkpt lat="33.866711" lon="-115.594965">
        <ele>672.699219</ele>
        <time>2020-06-20T21:20:46.000Z</time>
      </trkpt>
      <trkpt lat="33.86675" lon="-115.59488">
        <ele>672.699219</ele>
        <time>2020-06-20T21:20:47.000Z</time>
      </trkpt>
      <trkpt lat="33.866906" lon="-115.594518">
        <ele>671.398438</ele>
        <time>2020-06-20T21:21:04.000Z</time>
      </trkpt>
      <trkpt lat="33.866912" lon="-115.594511">
        <ele>672.000000</ele>
        <time>2020-06-20T21:21:13.000Z</time>
      </trkpt>
      <trkpt lat="33.866992" lon="-115.594446">
        <ele>672.199219</ele>
        <time>2020-06-20T21:21:14.000Z</time>
      </trkpt>
      <trkpt lat="33.867113" lon="-115.594341">
        <ele>671.898438</ele>
        <time>2020-06-20T21:21:20.000Z</time>
      </trkpt>
      <trkpt lat="33.867133" lon="-115.594317">
        <ele>671.199219</ele>
        <time>2020-06-20T21:21:23.000Z</time>
      </trkpt>
      <trkpt lat="33.867189" lon="-115.594236">
        <ele>671.199219</ele>
        <time>2020-06-20T21:21:24.000Z</time>
      </trkpt>
      <trkpt lat="33.867275" lon="-115.594097">
        <ele>670.398438</ele>
        <time>2020-06-20T21:21:30.000Z</time>
      </trkpt>
      <trkpt lat="33.86733" lon="-115.593996">
        <ele>671.097656</ele>
        <time>2020-06-20T21:21:34.000Z</time>
      </trkpt>
      <trkpt lat="33.867342" lon="-115.593969">
        <ele>670.597656</ele>
        <time>2020-06-20T21:21:37.000Z</time>
      </trkpt>
      <trkpt lat="33.867362" lon="-115.593885">
        <ele>670.199219</ele>
        <time>2020-06-20T21:21:38.000Z</time>
      </trkpt>
      <trkpt lat="33.867365" lon="-115.593857">
        <ele>670.199219</ele>
        <time>2020-06-20T21:21:41.000Z</time>
      </trkpt>
      <trkpt lat="33.867367" lon="-115.593765">
        <ele>670.296875</ele>
        <time>2020-06-20T21:21:42.000Z</time>
      </trkpt>
      <trkpt lat="33.867364" lon="-115.593455">
        <ele>673.898438</ele>
        <time>2020-06-20T21:21:55.000Z</time>
      </trkpt>
      <trkpt lat="33.867336" lon="-115.5928">
        <ele>676.296875</ele>
        <time>2020-06-20T21:22:08.000Z</time>
      </trkpt>
      <trkpt lat="33.86734" lon="-115.592751">
        <ele>676.500000</ele>
        <time>2020-06-20T21:22:10.000Z</time>
      </trkpt>
      <trkpt lat="33.867359" lon="-115.5926">
        <ele>675.796875</ele>
        <time>2020-06-20T21:22:12.000Z</time>
      </trkpt>
      <trkpt lat="33.867369" lon="-115.592393">
        <ele>677.500000</ele>
        <time>2020-06-20T21:22:16.000Z</time>
      </trkpt>
      <trkpt lat="33.86737" lon="-115.592344">
        <ele>678.296875</ele>
        <time>2020-06-20T21:22:18.000Z</time>
      </trkpt>
      <trkpt lat="33.867365" lon="-115.592249">
        <ele>678.398438</ele>
        <time>2020-06-20T21:22:19.000Z</time>
      </trkpt>
      <trkpt lat="33.867362" lon="-115.592203">
        <ele>679.097656</ele>
        <time>2020-06-20T21:22:21.000Z</time>
      </trkpt>
      <trkpt lat="33.867364" lon="-115.592108">
        <ele>679.097656</ele>
        <time>2020-06-20T21:22:22.000Z</time>
      </trkpt>
      <trkpt lat="33.867369" lon="-115.592059">
        <ele>678.898438</ele>
        <time>2020-06-20T21:22:24.000Z</time>
      </trkpt>
      <trkpt lat="33.867387" lon="-115.591957">
        <ele>678.796875</ele>
        <time>2020-06-20T21:22:25.000Z</time>
      </trkpt>
      <trkpt lat="33.8674" lon="-115.591908">
        <ele>678.898438</ele>
        <time>2020-06-20T21:22:27.000Z</time>
      </trkpt>
      <trkpt lat="33.867444" lon="-115.591774">
        <ele>677.199219</ele>
        <time>2020-06-20T21:22:29.000Z</time>
      </trkpt>
      <trkpt lat="33.86745" lon="-115.591733">
        <ele>675.898438</ele>
        <time>2020-06-20T21:22:31.000Z</time>
      </trkpt>
      <trkpt lat="33.867456" lon="-115.591665">
        <ele>675.500000</ele>
        <time>2020-06-20T21:22:33.000Z</time>
      </trkpt>
      <trkpt lat="33.86746" lon="-115.591588">
        <ele>675.500000</ele>
        <time>2020-06-20T21:22:34.000Z</time>
      </trkpt>
      <trkpt lat="33.86746" lon="-115.591552">
        <ele>674.097656</ele>
        <time>2020-06-20T21:22:37.000Z</time>
      </trkpt>
      <trkpt lat="33.867448" lon="-115.591462">
        <ele>673.597656</ele>
        <time>2020-06-20T21:22:38.000Z</time>
      </trkpt>
      <trkpt lat="33.867425" lon="-115.591352">
        <ele>672.398438</ele>
        <time>2020-06-20T21:22:43.000Z</time>
      </trkpt>
      <trkpt lat="33.867423" lon="-115.591331">
        <ele>669.699219</ele>
        <time>2020-06-20T21:22:48.000Z</time>
      </trkpt>
      <trkpt lat="33.867383" lon="-115.591227">
        <ele>669.500000</ele>
        <time>2020-06-20T21:22:49.000Z</time>
      </trkpt>
      <trkpt lat="33.86737" lon="-115.591202">
        <ele>668.398438</ele>
        <time>2020-06-20T21:22:53.000Z</time>
      </trkpt>
      <trkpt lat="33.867325" lon="-115.591132">
        <ele>668.097656</ele>
        <time>2020-06-20T21:22:54.000Z</time>
      </trkpt>
      <trkpt lat="33.867312" lon="-115.591113">
        <ele>668.000000</ele>
        <time>2020-06-20T21:22:58.000Z</time>
      </trkpt>
      <trkpt lat="33.867247" lon="-115.591045">
        <ele>667.796875</ele>
        <time>2020-06-20T21:22:59.000Z</time>
      </trkpt>
      <trkpt lat="33.867179" lon="-115.590973">
        <ele>667.597656</ele>
        <time>2020-06-20T21:23:03.000Z</time>
      </trkpt>
      <trkpt lat="33.867165" lon="-115.590948">
        <ele>667.296875</ele>
        <time>2020-06-20T21:23:06.000Z</time>
      </trkpt>
      <trkpt lat="33.867158" lon="-115.590851">
        <ele>667.898438</ele>
        <time>2020-06-20T21:23:07.000Z</time>
      </trkpt>
      <trkpt lat="33.867166" lon="-115.590817">
        <ele>669.097656</ele>
        <time>2020-06-20T21:23:10.000Z</time>
      </trkpt>
      <trkpt lat="33.867203" lon="-115.590653">
        <ele>669.699219</ele>
        <time>2020-06-20T21:23:13.000Z</time>
      </trkpt>
      <trkpt lat="33.867203" lon="-115.59062">
        <ele>670.898438</ele>
        <time>2020-06-20T21:23:16.000Z</time>
      </trkpt>
      <trkpt lat="33.867196" lon="-115.590529">
        <ele>670.500000</ele>
        <time>2020-06-20T21:23:17.000Z</time>
      </trkpt>
      <trkpt lat="33.867172" lon="-115.590389">
        <ele>671.500000</ele>
        <time>2020-06-20T21:23:21.000Z</time>
      </trkpt>
      <trkpt lat="33.867067" lon="-115.589876">
        <ele>674.097656</ele>
        <time>2020-06-20T21:23:31.000Z</time>
      </trkpt>
      <trkpt lat="33.866918" lon="-115.589398">
        <ele>675.199219</ele>
        <time>2020-06-20T21:23:41.000Z</time>
      </trkpt>
      <trkpt lat="33.866911" lon="-115.589355">
        <ele>675.296875</ele>
        <time>2020-06-20T21:23:43.000Z</time>
      </trkpt>
      <trkpt lat="33.86691" lon="-115.589263">
        <ele>675.398438</ele>
        <time>2020-06-20T21:23:44.000Z</time>
      </trkpt>
      <trkpt lat="33.866911" lon="-115.589233">
        <ele>676.398438</ele>
        <time>2020-06-20T21:24:23.000Z</time>
      </trkpt>
      <trkpt lat="33.866931" lon="-115.589127">
        <ele>676.398438</ele>
        <time>2020-06-20T21:24:24.000Z</time>
      </trkpt>
      <trkpt lat="33.866928" lon="-115.589095">
        <ele>676.296875</ele>
        <time>2020-06-20T21:24:27.000Z</time>
      </trkpt>
      <trkpt lat="33.866906" lon="-115.588902">
        <ele>676.597656</ele>
        <time>2020-06-20T21:24:30.000Z</time>
      </trkpt>
      <trkpt lat="33.866894" lon="-115.588862">
        <ele>676.597656</ele>
        <time>2020-06-20T21:24:32.000Z</time>
      </trkpt>
      <trkpt lat="33.866868" lon="-115.588778">
        <ele>676.500000</ele>
        <time>2020-06-20T21:24:33.000Z</time>
      </trkpt>
      <trkpt lat="33.866852" lon="-115.588736">
        <ele>676.597656</ele>
        <time>2020-06-20T21:24:35.000Z</time>
      </trkpt>
      <trkpt lat="33.866814" lon="-115.588665">
        <ele>676.699219</ele>
        <time>2020-06-20T21:24:36.000Z</time>
      </trkpt>
      <trkpt lat="33.866795" lon="-115.588633">
        <ele>676.898438</ele>
        <time>2020-06-20T21:24:38.000Z</time>
      </trkpt>
      <trkpt lat="33.86677" lon="-115.588568">
        <ele>677.097656</ele>
        <time>2020-06-20T21:24:40.000Z</time>
      </trkpt>
      <trkpt lat="33.866746" lon="-115.588508">
        <ele>677.000000</ele>
        <time>2020-06-20T21:24:42.000Z</time>
      </trkpt>
      <trkpt lat="33.866704" lon="-115.588459">
        <ele>676.898438</ele>
        <time>2020-06-20T21:24:44.000Z</time>
      </trkpt>
      <trkpt lat="33.866656" lon="-115.588416">
        <ele>677.398438</ele>
        <time>2020-06-20T21:24:46.000Z</time>
      </trkpt>
      <trkpt lat="33.866422" lon="-115.588203">
        <ele>676.199219</ele>
        <time>2020-06-20T21:24:59.000Z</time>
      </trkpt>
      <trkpt lat="33.866412" lon="-115.588189">
        <ele>676.597656</ele>
        <time>2020-06-20T21:25:03.000Z</time>
      </trkpt>
      <trkpt lat="33.866317" lon="-115.588087">
        <ele>676.699219</ele>
        <time>2020-06-20T21:25:06.000Z</time>
      </trkpt>
      <trkpt lat="33.8663" lon="-115.58806">
        <ele>677.000000</ele>
        <time>2020-06-20T21:25:09.000Z</time>
      </trkpt>
      <trkpt lat="33.866267" lon="-115.587963">
        <ele>677.000000</ele>
        <time>2020-06-20T21:25:10.000Z</time>
      </trkpt>
      <trkpt lat="33.86626" lon="-115.587925">
        <ele>676.699219</ele>
        <time>2020-06-20T21:25:12.000Z</time>
      </trkpt>
      <trkpt lat="33.866251" lon="-115.587853">
        <ele>677.000000</ele>
        <time>2020-06-20T21:25:14.000Z</time>
      </trkpt>
      <trkpt lat="33.866219" lon="-115.587663">
        <ele>678.097656</ele>
        <time>2020-06-20T21:25:21.000Z</time>
      </trkpt>
      <trkpt lat="33.866221" lon="-115.587627">
        <ele>678.699219</ele>
        <time>2020-06-20T21:25:24.000Z</time>
      </trkpt>
      <trkpt lat="33.866237" lon="-115.587527">
        <ele>678.500000</ele>
        <time>2020-06-20T21:25:25.000Z</time>
      </trkpt>
      <trkpt lat="33.866273" lon="-115.587329">
        <ele>679.796875</ele>
        <time>2020-06-20T21:25:34.000Z</time>
      </trkpt>
      <trkpt lat="33.866275" lon="-115.587291">
        <ele>680.398438</ele>
        <time>2020-06-20T21:25:36.000Z</time>
      </trkpt>
      <trkpt lat="33.866288" lon="-115.587199">
        <ele>680.500000</ele>
        <time>2020-06-20T21:25:37.000Z</time>
      </trkpt>
      <trkpt lat="33.86629" lon="-115.58715">
        <ele>680.699219</ele>
        <time>2020-06-20T21:25:39.000Z</time>
      </trkpt>
      <trkpt lat="33.866283" lon="-115.587051">
        <ele>680.699219</ele>
        <time>2020-06-20T21:25:40.000Z</time>
      </trkpt>
      <trkpt lat="33.866273" lon="-115.587002">
        <ele>680.500000</ele>
        <time>2020-06-20T21:25:42.000Z</time>
      </trkpt>
      <trkpt lat="33.866245" lon="-115.586912">
        <ele>680.699219</ele>
        <time>2020-06-20T21:25:43.000Z</time>
      </trkpt>
      <trkpt lat="33.866166" lon="-115.586695">
        <ele>680.000000</ele>
        <time>2020-06-20T21:25:50.000Z</time>
      </trkpt>
      <trkpt lat="33.866162" lon="-115.586685">
        <ele>680.199219</ele>
        <time>2020-06-20T21:26:10.000Z</time>
      </trkpt>
      <trkpt lat="33.866114" lon="-115.58658">
        <ele>680.296875</ele>
        <time>2020-06-20T21:26:13.000Z</time>
      </trkpt>
      <trkpt lat="33.866107" lon="-115.586572">
        <ele>681.796875</ele>
        <time>2020-06-20T21:26:23.000Z</time>
      </trkpt>
      <trkpt lat="33.866069" lon="-115.586478">
        <ele>681.398438</ele>
        <time>2020-06-20T21:26:24.000Z</time>
      </trkpt>
      <trkpt lat="33.86606" lon="-115.586471">
        <ele>682.097656</ele>
        <time>2020-06-20T21:26:31.000Z</time>
      </trkpt>
      <trkpt lat="33.865925" lon="-115.586358">
        <ele>682.500000</ele>
        <time>2020-06-20T21:26:38.000Z</time>
      </trkpt>
      <trkpt lat="33.865916" lon="-115.586346">
        <ele>683.097656</ele>
        <time>2020-06-20T21:26:43.000Z</time>
      </trkpt>
      <trkpt lat="33.865775" lon="-115.586168">
        <ele>682.398438</ele>
        <time>2020-06-20T21:26:49.000Z</time>
      </trkpt>
      <trkpt lat="33.865757" lon="-115.586151">
        <ele>682.500000</ele>
        <time>2020-06-20T21:26:53.000Z</time>
      </trkpt>
      <trkpt lat="33.8657" lon="-115.586086">
        <ele>682.296875</ele>
        <time>2020-06-20T21:26:54.000Z</time>
      </trkpt>
      <trkpt lat="33.865689" lon="-115.58607">
        <ele>683.199219</ele>
        <time>2020-06-20T21:26:58.000Z</time>
      </trkpt>
      <trkpt lat="33.865627" lon="-115.585985">
        <ele>682.898438</ele>
        <time>2020-06-20T21:27:02.000Z</time>
      </trkpt>
      <trkpt lat="33.865627" lon="-115.585986">
        <ele>687.898438</ele>
        <time>2020-06-20T21:27:30.000Z</time>
      </trkpt>
      <trkpt lat="33.865587" lon="-115.58588">
        <ele>688.500000</ele>
        <time>2020-06-20T21:27:31.000Z</time>
      </trkpt>
      <trkpt lat="33.865584" lon="-115.585861">
        <ele>688.699219</ele>
        <time>2020-06-20T21:27:36.000Z</time>
      </trkpt>
      <trkpt lat="33.865568" lon="-115.585738">
        <ele>689.296875</ele>
        <time>2020-06-20T21:27:38.000Z</time>
      </trkpt>
      <trkpt lat="33.865568" lon="-115.585615">
        <ele>689.796875</ele>
        <time>2020-06-20T21:27:44.000Z</time>
      </trkpt>
      <trkpt lat="33.865563" lon="-115.585594">
        <ele>691.199219</ele>
        <time>2020-06-20T21:27:49.000Z</time>
      </trkpt>
      <trkpt lat="33.86555" lon="-115.585499">
        <ele>691.597656</ele>
        <time>2020-06-20T21:27:50.000Z</time>
      </trkpt>
      <trkpt lat="33.865545" lon="-115.585376">
        <ele>694.199219</ele>
        <time>2020-06-20T21:27:57.000Z</time>
      </trkpt>
      <trkpt lat="33.865549" lon="-115.585359">
        <ele>695.097656</ele>
        <time>2020-06-20T21:28:03.000Z</time>
      </trkpt>
      <trkpt lat="33.865583" lon="-115.585136">
        <ele>697.597656</ele>
        <time>2020-06-20T21:28:11.000Z</time>
      </trkpt>
      <trkpt lat="33.865592" lon="-115.585117">
        <ele>698.296875</ele>
        <time>2020-06-20T21:28:15.000Z</time>
      </trkpt>
      <trkpt lat="33.865628" lon="-115.58504">
        <ele>698.796875</ele>
        <time>2020-06-20T21:28:17.000Z</time>
      </trkpt>
      <trkpt lat="33.865636" lon="-115.584999">
        <ele>699.500000</ele>
        <time>2020-06-20T21:28:20.000Z</time>
      </trkpt>
      <trkpt lat="33.865655" lon="-115.584933">
        <ele>699.898438</ele>
        <time>2020-06-20T21:28:22.000Z</time>
      </trkpt>
      <trkpt lat="33.865673" lon="-115.58489">
        <ele>700.898438</ele>
        <time>2020-06-20T21:28:25.000Z</time>
      </trkpt>
      <trkpt lat="33.865701" lon="-115.584824">
        <ele>701.398438</ele>
        <time>2020-06-20T21:28:27.000Z</time>
      </trkpt>
      <trkpt lat="33.865713" lon="-115.584779">
        <ele>701.699219</ele>
        <time>2020-06-20T21:28:30.000Z</time>
      </trkpt>
      <trkpt lat="33.865725" lon="-115.584708">
        <ele>702.296875</ele>
        <time>2020-06-20T21:28:32.000Z</time>
      </trkpt>
      <trkpt lat="33.865738" lon="-115.58467">
        <ele>703.699219</ele>
        <time>2020-06-20T21:28:35.000Z</time>
      </trkpt>
      <trkpt lat="33.865845" lon="-115.584418">
        <ele>705.500000</ele>
        <time>2020-06-20T21:28:43.000Z</time>
      </trkpt>
      <trkpt lat="33.865849" lon="-115.584392">
        <ele>706.796875</ele>
        <time>2020-06-20T21:28:46.000Z</time>
      </trkpt>
      <trkpt lat="33.865872" lon="-115.584249">
        <ele>707.097656</ele>
        <time>2020-06-20T21:28:49.000Z</time>
      </trkpt>
      <trkpt lat="33.865879" lon="-115.584099">
        <ele>707.398438</ele>
        <time>2020-06-20T21:28:54.000Z</time>
      </trkpt>
      <trkpt lat="33.865899" lon="-115.583926">
        <ele>708.699219</ele>
        <time>2020-06-20T21:29:00.000Z</time>
      </trkpt>
      <trkpt lat="33.865904" lon="-115.583897">
        <ele>711.000000</ele>
        <time>2020-06-20T21:29:04.000Z</time>
      </trkpt>
      <trkpt lat="33.865934" lon="-115.583743">
        <ele>710.500000</ele>
        <time>2020-06-20T21:29:08.000Z</time>
      </trkpt>
      <trkpt lat="33.865931" lon="-115.583717">
        <ele>711.796875</ele>
        <time>2020-06-20T21:29:12.000Z</time>
      </trkpt>
      <trkpt lat="33.865946" lon="-115.583619">
        <ele>711.898438</ele>
        <time>2020-06-20T21:29:13.000Z</time>
      </trkpt>
      <trkpt lat="33.86595" lon="-115.583595">
        <ele>714.000000</ele>
        <time>2020-06-20T21:29:17.000Z</time>
      </trkpt>
      <trkpt lat="33.865955" lon="-115.58349">
        <ele>714.199219</ele>
        <time>2020-06-20T21:29:18.000Z</time>
      </trkpt>
      <trkpt lat="33.865954" lon="-115.583466">
        <ele>714.796875</ele>
        <time>2020-06-20T21:29:23.000Z</time>
      </trkpt>
      <trkpt lat="33.86594" lon="-115.58337">
        <ele>714.898438</ele>
        <time>2020-06-20T21:29:24.000Z</time>
      </trkpt>
      <trkpt lat="33.865937" lon="-115.583354">
        <ele>715.597656</ele>
        <time>2020-06-20T21:29:30.000Z</time>
      </trkpt>
      <trkpt lat="33.8659" lon="-115.583196">
        <ele>716.898438</ele>
        <time>2020-06-20T21:29:35.000Z</time>
      </trkpt>
      <trkpt lat="33.865899" lon="-115.583177">
        <ele>716.898438</ele>
        <time>2020-06-20T21:29:40.000Z</time>
      </trkpt>
      <trkpt lat="33.8659" lon="-115.583071">
        <ele>717.000000</ele>
        <time>2020-06-20T21:29:41.000Z</time>
      </trkpt>
      <trkpt lat="33.865905" lon="-115.583053">
        <ele>717.597656</ele>
        <time>2020-06-20T21:29:46.000Z</time>
      </trkpt>
      <trkpt lat="33.865989" lon="-115.582713">
        <ele>718.597656</ele>
        <time>2020-06-20T21:29:58.000Z</time>
      </trkpt>
      <trkpt lat="33.865994" lon="-115.58268">
        <ele>717.296875</ele>
        <time>2020-06-20T21:30:01.000Z</time>
      </trkpt>
      <trkpt lat="33.865996" lon="-115.582573">
        <ele>717.000000</ele>
        <time>2020-06-20T21:30:02.000Z</time>
      </trkpt>
      <trkpt lat="33.865999" lon="-115.582335">
        <ele>716.796875</ele>
        <time>2020-06-20T21:30:10.000Z</time>
      </trkpt>
      <trkpt lat="33.866001" lon="-115.582334">
        <ele>718.500000</ele>
        <time>2020-06-20T21:30:28.000Z</time>
      </trkpt>
      <trkpt lat="33.865977" lon="-115.582202">
        <ele>718.199219</ele>
        <time>2020-06-20T21:30:29.000Z</time>
      </trkpt>
      <trkpt lat="33.865963" lon="-115.582179">
        <ele>717.199219</ele>
        <time>2020-06-20T21:30:32.000Z</time>
      </trkpt>
      <trkpt lat="33.865918" lon="-115.582116">
        <ele>717.199219</ele>
        <time>2020-06-20T21:30:34.000Z</time>
      </trkpt>
      <trkpt lat="33.865836" lon="-115.582">
        <ele>718.597656</ele>
        <time>2020-06-20T21:30:39.000Z</time>
      </trkpt>
      <trkpt lat="33.865828" lon="-115.581979">
        <ele>719.199219</ele>
        <time>2020-06-20T21:30:43.000Z</time>
      </trkpt>
      <trkpt lat="33.8658" lon="-115.581898">
        <ele>719.097656</ele>
        <time>2020-06-20T21:30:44.000Z</time>
      </trkpt>
      <trkpt lat="33.865796" lon="-115.581875">
        <ele>719.898438</ele>
        <time>2020-06-20T21:30:48.000Z</time>
      </trkpt>
      <trkpt lat="33.865787" lon="-115.581769">
        <ele>719.898438</ele>
        <time>2020-06-20T21:30:49.000Z</time>
      </trkpt>
      <trkpt lat="33.865787" lon="-115.581738">
        <ele>719.597656</ele>
        <time>2020-06-20T21:30:52.000Z</time>
      </trkpt>
      <trkpt lat="33.865799" lon="-115.58166">
        <ele>719.097656</ele>
        <time>2020-06-20T21:30:54.000Z</time>
      </trkpt>
      <trkpt lat="33.86581" lon="-115.581627">
        <ele>719.398438</ele>
        <time>2020-06-20T21:31:05.000Z</time>
      </trkpt>
      <trkpt lat="33.86585" lon="-115.581557">
        <ele>719.500000</ele>
        <time>2020-06-20T21:31:07.000Z</time>
      </trkpt>
      <trkpt lat="33.865872" lon="-115.581534">
        <ele>718.199219</ele>
        <time>2020-06-20T21:31:11.000Z</time>
      </trkpt>
      <trkpt lat="33.865956" lon="-115.581451">
        <ele>717.398438</ele>
        <time>2020-06-20T21:31:13.000Z</time>
      </trkpt>
      <trkpt lat="33.866047" lon="-115.58135">
        <ele>717.898438</ele>
        <time>2020-06-20T21:31:18.000Z</time>
      </trkpt>
      <trkpt lat="33.866063" lon="-115.581327">
        <ele>718.398438</ele>
        <time>2020-06-20T21:31:21.000Z</time>
      </trkpt>
      <trkpt lat="33.866104" lon="-115.58125">
        <ele>718.199219</ele>
        <time>2020-06-20T21:31:22.000Z</time>
      </trkpt>
      <trkpt lat="33.866111" lon="-115.581226">
        <ele>719.000000</ele>
        <time>2020-06-20T21:31:27.000Z</time>
      </trkpt>
      <trkpt lat="33.866141" lon="-115.5811">
        <ele>718.398438</ele>
        <time>2020-06-20T21:31:29.000Z</time>
      </trkpt>
      <trkpt lat="33.866145" lon="-115.581076">
        <ele>716.898438</ele>
        <time>2020-06-20T21:31:33.000Z</time>
      </trkpt>
      <trkpt lat="33.866167" lon="-115.580994">
        <ele>717.796875</ele>
        <time>2020-06-20T21:31:35.000Z</time>
      </trkpt>
      <trkpt lat="33.866187" lon="-115.580963">
        <ele>717.699219</ele>
        <time>2020-06-20T21:31:40.000Z</time>
      </trkpt>
      <trkpt lat="33.866214" lon="-115.580896">
        <ele>718.597656</ele>
        <time>2020-06-20T21:31:42.000Z</time>
      </trkpt>
      <trkpt lat="33.866226" lon="-115.580858">
        <ele>719.796875</ele>
        <time>2020-06-20T21:31:45.000Z</time>
      </trkpt>
      <trkpt lat="33.866262" lon="-115.580726">
        <ele>721.000000</ele>
        <time>2020-06-20T21:31:48.000Z</time>
      </trkpt>
      <trkpt lat="33.866272" lon="-115.580701">
        <ele>721.597656</ele>
        <time>2020-06-20T21:31:51.000Z</time>
      </trkpt>
      <trkpt lat="33.866314" lon="-115.580619">
        <ele>721.296875</ele>
        <time>2020-06-20T21:31:52.000Z</time>
      </trkpt>
      <trkpt lat="33.866328" lon="-115.580591">
        <ele>721.097656</ele>
        <time>2020-06-20T21:31:55.000Z</time>
      </trkpt>
      <trkpt lat="33.866378" lon="-115.580523">
        <ele>721.097656</ele>
        <time>2020-06-20T21:31:56.000Z</time>
      </trkpt>
      <trkpt lat="33.866454" lon="-115.580434">
        <ele>721.898438</ele>
        <time>2020-06-20T21:32:00.000Z</time>
      </trkpt>
      <trkpt lat="33.866473" lon="-115.580414">
        <ele>731.199219</ele>
        <time>2020-06-20T21:44:16.000Z</time>
      </trkpt>
      <trkpt lat="33.866508" lon="-115.580387">
        <ele>720.500000</ele>
        <time>2020-06-20T21:58:42.000Z</time>
      </trkpt>
      <trkpt lat="33.866508" lon="-115.580387">
        <ele>720.500000</ele>
        <time>2020-06-20T21:58:42.000Z</time>
      </trkpt>
    </trkseg>
</trk>
</gpx>